AA1516 / N817NN 7700 Squawk Report (19th of April, 2019)

Aircraft B738 Reg No. N817NN Age 9 years old
Model 737 Jet engines 2 First flight 17-11-09
Registered 03-12-09 Rollout 06-11-09 Delivered 03-12-09
Construction No. 29558 Line No. 3107 Series 823
ADSHEX AB2496 Airline name American Airlines Owner N/A
Airfield based Dallas-Fort Worth~TX~N First tracked 2017-07-13 11:27:00
Time Lat Lon Altitude Heading Speed Vertical Rate
2019-04-19 13:16:56 GMT 25.802124 -80.267738 50 268 163 -832
2019-04-19 13:16:52 GMT 25.802322 -80.263519 100 268 163 -832
2019-04-19 13:16:47 GMT 25.802444 -80.259804 175 268 163 -1024
2019-04-19 13:16:40 GMT 25.802694 -80.253212 300 268 164 -960
2019-04-19 13:16:35 GMT 25.802881 -80.249268 450 269 163 -896
2019-04-19 13:16:29 GMT 25.802994 -80.244850 475 268 162 -896
2019-04-19 13:16:24 GMT 25.803162 -80.240822 550 267 162 -896
2019-04-19 13:16:18 GMT 25.803486 -80.235794 625 262 159 -832
2019-04-19 13:16:13 GMT 25.804001 -80.231575 700 260 160 -960
2019-04-19 13:16:09 GMT 25.804510 -80.228592 750 263 160 -576
2019-04-19 13:16:06 GMT 25.804930 -80.226051 800 261 160 -832
2019-04-19 13:16:02 GMT 25.805420 -80.222626 850 263 160 -576
2019-04-19 13:15:56 GMT 25.805861 -80.218437 900 264 157 -704
2019-04-19 13:15:50 GMT 25.806427 -80.213165 975 262 157 -448
2019-04-19 13:15:45 GMT 25.806885 -80.209404 1,000 259 155 -512
2019-04-19 13:15:39 GMT 25.807846 -80.204567 1,075 254 154 -320
2019-04-19 13:15:35 GMT 25.808792 -80.200920 1,100 253 154 -320
2019-04-19 13:15:28 GMT 25.810329 -80.195633 1,150 248 154 -448
2019-04-19 13:15:23 GMT 25.811399 -80.192574 1,200 248 154 -448
2019-04-19 13:15:17 GMT 25.813496 -80.187393 1,250 242 151 -832
2019-04-19 13:15:12 GMT 25.814713 -80.184937 1,300 240 150 -1024
2019-04-19 13:15:05 GMT 25.817312 -80.180084 1,400 238 148 -1088
2019-04-19 13:15:02 GMT 25.818476 -80.178070 1,475 237 146 -1024
2019-04-19 13:14:54 GMT 25.821594 -80.173248 1,525 233 149 -128
2019-04-19 13:14:51 GMT 25.822861 -80.171455 1,525 233 149 -192
2019-04-19 13:14:43 GMT 25.826523 -80.166321 1,550 232 153 128
2019-04-19 13:14:40 GMT 25.827414 -80.165115 1,550 232 155 192
2019-04-19 13:14:32 GMT 25.831329 -80.159615 1,550 233 160 128
2019-04-19 13:14:29 GMT 25.832474 -80.157959 1,525 233 161 320
2019-04-19 13:14:21 GMT 25.836365 -80.152573 1,500 230 165 0
2019-04-19 13:14:18 GMT 25.838104 -80.150291 1,500 230 167 0
2019-04-19 13:14:08 GMT 25.843334 -80.143570 1,475 229 163 256
2019-04-19 13:13:58 GMT 25.848129 -80.137650 1,475 228 162 -64
2019-04-19 13:13:55 GMT 25.849411 -80.136147 1,500 227 165 -192
2019-04-19 13:13:48 GMT 25.853531 -80.131371 1,525 225 172 -192
2019-04-19 13:13:45 GMT 25.855087 -80.129616 1,525 225 175 -256
2019-04-19 13:13:37 GMT 25.860077 -80.124382 1,725 224 178 -2112
2019-04-19 13:13:34 GMT 25.861629 -80.122765 1,800 224 178 -1536
2019-04-19 13:13:25 GMT 25.866705 -80.117477 1,975 224 181 -384
2019-04-19 13:13:22 GMT 25.868334 -80.115738 1,975 224 186 0
2019-04-19 13:13:15 GMT 25.873764 -80.110023 1,975 224 188 -64
2019-04-19 13:13:12 GMT 25.876877 -80.106758 2,000 224 189 -64
2019-04-19 13:13:04 GMT 25.882580 -80.100792 1,975 224 191 320
2019-04-19 13:12:57 GMT 25.884338 -80.098984 1,975 224 191 512
2019-04-19 13:12:52 GMT 25.887955 -80.095154 1,850 224 192 1344
2019-04-19 13:12:49 GMT 25.890472 -80.092506 1,825 224 192 1280
2019-04-19 13:12:40 GMT 25.896240 -80.086494 1,675 223 196 448
2019-04-19 13:12:27 GMT 25.904388 -80.078362 1,800 223 203 -832
2019-04-19 13:12:16 GMT 25.912216 -80.070534 1,950 223 207 -704
2019-04-19 13:12:05 GMT 25.919861 -80.062759 2,100 223 206 -704
2019-04-19 13:11:54 GMT 25.927872 -80.054733 2,225 223 206 -768
2019-04-19 13:11:45 GMT 25.936157 -80.046280 2,425 224 209 -1152
2019-04-19 13:11:33 GMT 25.942492 -80.039734 2,650 224 210 -1792
2019-04-19 13:11:30 GMT 25.944540 -80.037567 2,750 224 210 -1728
2019-04-19 13:11:23 GMT 25.950211 -80.031723 2,975 224 210 -1792
2019-04-19 13:11:20 GMT 25.952314 -80.029488 3,050 224 210 -1664
2019-04-19 13:11:11 GMT 25.958134 -80.023361 3,300 225 211 -1792
2019-04-19 13:11:08 GMT 25.960556 -80.020790 3,400 225 211 -1792
2019-04-19 13:11:00 GMT 25.966095 -80.014618 3,650 227 212 -1664
2019-04-19 13:10:57 GMT 25.968933 -80.011406 3,750 227 212 -1792
2019-04-19 13:10:50 GMT 25.973190 -80.006584 3,925 220 213 -1536
2019-04-19 13:10:46 GMT 25.976669 -80.003426 4,050 213 214 -1664
2019-04-19 13:10:39 GMT 25.982014 -80.000015 4,250 201 216 -2304
2019-04-19 13:10:34 GMT 25.986832 -79.998192 4,450 194 216 -2304
2019-04-19 13:10:31 GMT 25.990631 -79.997208 4,600 193 214 -2304
2019-04-19 13:10:27 GMT 25.993103 -79.996635 4,700 193 213 -2304
2019-04-19 13:10:23 GMT 25.997749 -79.995522 4,875 193 212 -1984
2019-04-19 13:10:19 GMT 26.000839 -79.994774 4,975 194 212 -1600
2019-04-19 13:10:16 GMT 26.003540 -79.994049 5,050 195 213 -1600
2019-04-19 13:10:12 GMT 26.008596 -79.992668 5,200 195 211 -1984
2019-04-19 13:10:09 GMT 26.010923 -79.992035 5,300 195 209 -2496
2019-04-19 13:10:06 GMT 26.013931 -79.991142 5,425 195 207 -2688
2019-04-19 13:09:59 GMT 26.021118 -79.989075 5,675 196 209 -1024
2019-04-19 13:09:54 GMT 26.025055 -79.987877 5,725 196 212 -448
2019-04-19 13:09:47 GMT 26.031452 -79.985909 5,750 195 216 -640
2019-04-19 13:09:41 GMT 26.037323 -79.984200 5,900 195 218 -1152
2019-04-19 13:09:37 GMT 26.042299 -79.982742 5,925 195 221 -320
2019-04-19 13:09:32 GMT 26.045883 -79.981712 5,925 196 224 -64
2019-04-19 13:09:29 GMT 26.049515 -79.980629 5,950 204 231 -128
2019-04-19 13:09:25 GMT 26.053053 -79.979408 5,950 204 231 -128
2019-04-19 13:09:22 GMT 26.056452 -79.977829 5,950 213 237 -192
2019-04-19 13:09:19 GMT 26.058746 -79.976425 5,975 216 241 -512
2019-04-19 13:09:15 GMT 26.063232 -79.972954 6,000 217 244 -384
2019-04-19 13:09:12 GMT 26.066574 -79.970261 6,025 217 245 -448
2019-04-19 13:09:09 GMT 26.068909 -79.968391 6,050 217 247 -512
2019-04-19 13:09:04 GMT 26.073807 -79.964401 6,125 216 250 -896
2019-04-19 13:09:00 GMT 26.076645 -79.962128 6,175 216 250 -1024
2019-04-19 13:08:54 GMT 26.082567 -79.957336 6,275 217 254 -960
2019-04-19 13:08:50 GMT 26.086395 -79.954247 6,550 217 258 -1344
2019-04-19 13:08:44 GMT 26.092712 -79.949165 6,475 216 257 -1152
2019-04-19 13:08:39 GMT 26.100536 -79.942863 6,650 217 258 -1344
2019-04-19 13:08:32 GMT 26.103790 -79.940201 6,725 217 258 -1408
2019-04-19 13:08:28 GMT 26.107407 -79.937302 6,900 216 259 -1408
2019-04-19 13:08:23 GMT 26.113129 -79.932686 6,925 217 259 -1344
2019-04-19 13:08:16 GMT 26.118877 -79.928017 7,050 216 260 -1472
2019-04-19 13:08:12 GMT 26.123749 -79.924141 7,200 216 260 -1536
2019-04-19 13:08:05 GMT 26.129725 -79.919357 7,375 216 259 -1664
2019-04-19 13:08:01 GMT 26.134048 -79.915901 7,500 217 258 -1984
2019-04-19 13:07:54 GMT 26.140898 -79.910378 7,675 216 257 -2048
2019-04-19 13:07:51 GMT 26.144577 -79.907448 7,850 217 256 -1856
2019-04-19 13:07:43 GMT 26.151718 -79.901695 7,950 217 259 -192
2019-04-19 13:07:40 GMT 26.155048 -79.899025 7,975 217 260 -128
2019-04-19 13:07:34 GMT 26.159500 -79.895378 7,975 217 260 0
2019-04-19 13:07:31 GMT 26.163614 -79.891998 7,975 217 260 64
2019-04-19 13:07:24 GMT 26.169388 -79.887192 7,975 217 260 0
2019-04-19 13:07:20 GMT 26.174423 -79.883041 7,975 217 260 0
2019-04-19 13:07:13 GMT 26.180145 -79.878380 7,975 217 259 0
2019-04-19 13:07:09 GMT 26.184982 -79.874359 7,975 217 259 0
2019-04-19 13:07:01 GMT 26.192476 -79.868179 7,975 218 258 -64
2019-04-19 13:06:57 GMT 26.196716 -79.864647 7,975 217 257 64
2019-04-19 13:06:49 GMT 26.203323 -79.859146 7,975 217 256 0
2019-04-19 13:06:46 GMT 26.206675 -79.856400 7,975 217 256 -64
2019-04-19 13:06:41 GMT 26.211376 -79.852592 7,975 216 256 -128
2019-04-19 13:06:38 GMT 26.213751 -79.850693 7,975 216 255 -64
2019-04-19 13:06:35 GMT 26.217056 -79.848053 7,975 216 255 0
2019-04-19 13:06:31 GMT 26.221390 -79.844643 7,975 215 256 128
2019-04-19 13:06:27 GMT 26.224136 -79.842567 7,975 215 255 0
2019-04-19 13:06:24 GMT 26.227858 -79.839760 7,975 215 255 64
2019-04-19 13:06:19 GMT 26.231827 -79.836815 7,975 215 257 64
2019-04-19 13:06:15 GMT 26.235956 -79.833687 7,950 215 257 -64
2019-04-19 13:06:12 GMT 26.239105 -79.831322 7,950 215 257 -64
2019-04-19 13:06:09 GMT 26.242474 -79.828773 7,975 215 257 0
2019-04-19 13:06:05 GMT 26.246338 -79.825867 7,975 215 258 0
2019-04-19 13:06:01 GMT 26.250687 -79.822617 7,975 215 258 0
2019-04-19 13:05:54 GMT 26.256821 -79.817902 7,975 215 258 64
2019-04-19 13:05:51 GMT 26.261169 -79.814583 7,950 215 259 64
2019-04-19 13:05:43 GMT 26.267761 -79.809608 7,950 215 259 0
2019-04-19 13:05:40 GMT 26.272018 -79.806343 7,975 215 260 0
2019-04-19 13:05:36 GMT 26.274536 -79.804428 7,975 215 261 -64
2019-04-19 13:05:32 GMT 26.278738 -79.801254 8,000 215 261 -704
2019-04-19 13:05:26 GMT 26.284653 -79.796814 8,100 215 262 -1344
2019-04-19 13:05:22 GMT 26.289185 -79.793388 8,200 215 263 -1216
2019-04-19 13:05:14 GMT 26.297453 -79.787201 8,275 214 265 -448
2019-04-19 13:05:11 GMT 26.300665 -79.784882 8,350 214 269 -1344
2019-04-19 13:05:04 GMT 26.307495 -79.779762 8,550 214 270 -2112
2019-04-19 13:05:00 GMT 26.312210 -79.776344 8,675 214 273 -1216
2019-04-19 13:04:54 GMT 26.318260 -79.771889 8,775 216 276 -1408
2019-04-19 13:04:49 GMT 26.323746 -79.767586 8,900 219 282 -1088
2019-04-19 13:04:42 GMT 26.331070 -79.760849 9,050 223 290 -1088
2019-04-19 13:04:38 GMT 26.335392 -79.756302 9,125 228 296 -1024
2019-04-19 13:04:31 GMT 26.341003 -79.749130 9,275 235 304 -1728
2019-04-19 13:04:27 GMT 26.345444 -79.742241 9,400 236 307 -1408
2019-04-19 13:04:20 GMT 26.350197 -79.734489 9,600 236 309 -2432
2019-04-19 13:04:15 GMT 26.354279 -79.727936 9,825 236 308 -3136
2019-04-19 13:04:12 GMT 26.356806 -79.723877 9,975 236 308 -3008
2019-04-19 13:04:08 GMT 26.359543 -79.719437 10,125 234 308 -2560
2019-04-19 13:04:02 GMT 26.366163 -79.709770 10,300 231 311 -768
2019-04-19 13:03:58 GMT 26.368910 -79.706078 10,325 230 312 -64
2019-04-19 13:03:55 GMT 26.376297 -79.696327 10,375 230 314 -1088
2019-04-19 13:03:51 GMT 26.376297 -79.696327 10,425 230 314 -1088
2019-04-19 13:03:45 GMT 26.381014 -79.690125 10,525 230 315 -960
2019-04-19 13:03:42 GMT 26.383389 -79.687004 10,575 230 315 -1024
2019-04-19 13:03:39 GMT 26.385864 -79.683784 10,600 230 315 -1024
2019-04-19 13:03:36 GMT 26.389812 -79.678612 10,675 230 314 -1024
2019-04-19 13:03:29 GMT 26.396049 -79.670425 10,800 230 314 -960
2019-04-19 13:03:23 GMT 26.400938 -79.664192 10,875 230 314 -960
2019-04-19 13:03:18 GMT 26.406189 -79.657410 11,050 229 314 -1024
2019-04-19 13:03:12 GMT 26.411552 -79.650558 11,075 228 315 -1024
2019-04-19 13:03:08 GMT 26.416439 -79.644592 11,150 224 314 -1088
2019-04-19 13:03:02 GMT 26.423328 -79.637726 11,250 218 317 -1024
2019-04-19 13:02:59 GMT 26.426216 -79.635193 11,300 217 317 -960
2019-04-19 13:02:51 GMT 26.436131 -79.626900 11,450 218 318 -1024
2019-04-19 13:02:48 GMT 26.439342 -79.624260 11,475 218 318 -1024
2019-04-19 13:02:45 GMT 26.442627 -79.621445 11,525 218 317 -1024
2019-04-19 13:02:39 GMT 26.449539 -79.615639 11,650 218 316 -1024
2019-04-19 13:02:35 GMT 26.454193 -79.611633 11,700 218 316 -1024
2019-04-19 13:02:26 GMT 26.464294 -79.603027 11,825 218 316 -1024
2019-04-19 13:02:23 GMT 26.467833 -79.600067 11,900 218 316 -1024
2019-04-19 13:02:19 GMT 26.472397 -79.596214 11,950 218 318 -960
2019-04-19 13:02:15 GMT 26.477190 -79.592140 12,025 218 318 -960
2019-04-19 13:02:12 GMT 26.480484 -79.589317 12,075 218 318 -1088
2019-04-19 13:02:06 GMT 26.489136 -79.581902 12,200 218 319 -1088
2019-04-19 13:02:02 GMT 26.493027 -79.578590 12,325 218 319 -960
2019-04-19 13:01:53 GMT 26.503447 -79.569641 12,375 218 319 -896
2019-04-19 13:01:49 GMT 26.507904 -79.565842 12,475 218 317 -896
2019-04-19 13:01:42 GMT 26.515869 -79.559052 12,550 218 315 -960
2019-04-19 13:01:39 GMT 26.519367 -79.556068 12,625 218 314 -1088
2019-04-19 13:01:32 GMT 26.527817 -79.548897 12,750 218 315 -1024
2019-04-19 13:01:29 GMT 26.532715 -79.544800 12,825 218 315 -1088
2019-04-19 13:01:22 GMT 26.545624 -79.533966 12,950 217 317 -832
2019-04-19 13:01:18 GMT 26.545624 -79.533966 12,975 217 320 -832
2019-04-19 13:01:10 GMT 26.553816 -79.527122 13,100 218 320 -896
2019-04-19 13:01:07 GMT 26.558424 -79.523216 13,150 218 319 -960
2019-04-19 13:01:00 GMT 26.566772 -79.516190 13,275 218 317 -896
2019-04-19 13:00:56 GMT 26.571226 -79.512390 13,325 218 316 -960
2019-04-19 13:00:47 GMT 26.579956 -79.504944 13,450 218 315 -1088
2019-04-19 13:00:43 GMT 26.584946 -79.500694 13,525 218 314 -1152
2019-04-19 13:00:38 GMT 26.592133 -79.494583 13,625 218 313 -1088
2019-04-19 13:00:34 GMT 26.596848 -79.490540 13,700 218 312 -1088
2019-04-19 13:00:27 GMT 26.604137 -79.484390 13,800 218 311 -896
2019-04-19 13:00:23 GMT 26.608704 -79.480484 13,875 218 311 -832
2019-04-19 13:00:16 GMT 26.617401 -79.473076 13,975 218 312 -960
2019-04-19 13:00:05 GMT 26.632162 -79.460518 14,225 218 314 -1152
2019-04-19 12:59:52 GMT 26.643814 -79.450745 14,425 218 314 -1152
2019-04-19 12:59:40 GMT 26.658096 -79.438560 14,675 217 315 -1280
2019-04-19 12:59:30 GMT 26.669683 -79.429672 14,925 210 318 -1792
2019-04-19 12:59:19 GMT 26.686066 -79.420059 15,325 204 319 -2048
2019-04-19 12:59:07 GMT 26.700548 -79.414146 15,600 197 321 -1984
2019-04-19 12:58:57 GMT 26.716702 -79.409447 15,900 195 328 -1536
2019-04-19 12:58:45 GMT 26.733414 -79.404694 16,225 195 331 -1600
2019-04-19 12:58:35 GMT 26.749987 -79.399933 16,525 195 334 -1600
2019-04-19 12:58:23 GMT 26.766699 -79.395126 17,250 195 336 -3136
2019-04-19 12:58:12 GMT 26.784389 -79.390060 17,350 195 337 -2752
2019-04-19 12:58:03 GMT 26.796026 -79.386734 17,925 195 335 -3520
2019-04-19 12:57:59 GMT 26.802383 -79.384926 18,000 195 335 -3264
2019-04-19 12:57:52 GMT 26.813232 -79.381821 18,325 195 336 -2304
2019-04-19 12:57:49 GMT 26.818222 -79.380363 18,450 195 338 -2048
2019-04-19 12:57:41 GMT 26.829918 -79.377014 18,775 195 339 -2752
2019-04-19 12:57:37 GMT 26.835270 -79.375481 18,925 194 339 -3264
2019-04-19 12:57:31 GMT 26.846537 -79.372368 19,325 195 337 -3328
2019-04-19 12:57:26 GMT 26.852448 -79.370728 19,500 195 337 -2944
2019-04-19 12:57:20 GMT 26.862305 -79.367928 19,700 195 342 -832
2019-04-19 12:57:16 GMT 26.869675 -79.365852 19,750 195 345 -320
2019-04-19 12:57:08 GMT 26.880890 -79.362694 19,900 195 349 -1280
2019-04-19 12:57:04 GMT 26.886850 -79.361008 19,925 195 349 -960
2019-04-19 12:56:57 GMT 26.897690 -79.357880 20,000 195 350 -192
2019-04-19 12:56:52 GMT 26.906820 -79.355255 19,975 195 351 64
2019-04-19 12:56:47 GMT 26.914410 -79.353035 19,975 195 350 -192
2019-04-19 12:56:41 GMT 26.924515 -79.350052 20,000 195 351 -128
2019-04-19 12:56:34 GMT 26.934265 -79.347198 20,000 195 346 -128
2019-04-19 12:56:28 GMT 26.943649 -79.344505 20,000 195 346 -128
2019-04-19 12:56:21 GMT 26.954086 -79.341499 20,000 195 344 -64
2019-04-19 12:56:17 GMT 26.960907 -79.339584 20,000 195 343 0
2019-04-19 12:56:12 GMT 26.968460 -79.337456 20,000 195 342 0
2019-04-19 12:56:07 GMT 26.977982 -79.334709 20,000 195 342 0
2019-04-19 12:55:58 GMT 26.989220 -79.331482 20,000 195 342 -64
2019-04-19 12:55:55 GMT 26.996294 -79.329422 20,000 195 342 0
2019-04-19 12:55:51 GMT 27.001089 -79.328102 20,000 195 342 0
2019-04-19 12:55:43 GMT 27.012634 -79.324814 19,975 195 343 64
2019-04-19 12:55:40 GMT 27.017614 -79.323349 20,000 195 343 -192
2019-04-19 12:55:32 GMT 27.030277 -79.319756 20,000 195 345 64
2019-04-19 12:55:21 GMT 27.046097 -79.315125 19,975 195 345 64
2019-04-19 12:55:17 GMT 27.052624 -79.313210 19,975 196 346 64
2019-04-19 12:55:11 GMT 27.063004 -79.310089 19,975 195 347 64
2019-04-19 12:55:06 GMT 27.070496 -79.307869 19,975 195 347 0
2019-04-19 12:54:59 GMT 27.080788 -79.304863 19,975 195 350 0
2019-04-19 12:54:53 GMT 27.089584 -79.302277 19,975 195 357 -448
2019-04-19 12:54:49 GMT 27.098198 -79.299789 20,000 195 357 -448
2019-04-19 12:54:44 GMT 27.105133 -79.297783 20,075 195 360 -1472
2019-04-19 12:54:40 GMT 27.111282 -79.296051 20,175 195 363 -1280
2019-04-19 12:54:36 GMT 27.117645 -79.294235 20,250 195 366 -896
2019-04-19 12:54:31 GMT 27.125710 -79.291870 20,300 195 375 -1984
2019-04-19 12:54:24 GMT 27.137558 -79.288383 20,450 195 374 -1728
2019-04-19 12:54:16 GMT 27.150970 -79.284393 20,700 195 376 -2368
2019-04-19 12:54:13 GMT 27.156387 -79.282784 20,850 195 376 -2368
2019-04-19 12:54:09 GMT 27.163467 -79.280708 21,000 195 378 -2048
2019-04-19 12:54:05 GMT 27.171295 -79.278381 21,175 195 379 -2112
2019-04-19 12:54:02 GMT 27.174171 -79.277557 21,225 195 380 -2112
2019-04-19 12:53:51 GMT 27.194933 -79.271637 21,575 195 385 -1728
2019-04-19 12:53:41 GMT 27.213785 -79.266357 21,850 194 394 -1024
2019-04-19 12:53:36 GMT 27.219086 -79.264908 21,925 194 395 -1024
2019-04-19 12:53:29 GMT 27.231802 -79.261337 22,200 194 402 -2304
2019-04-19 12:53:20 GMT 27.248327 -79.256798 22,750 195 408 -2048
2019-04-19 12:53:15 GMT 27.257446 -79.254234 23,300 195 408 -2240
2019-04-19 12:53:09 GMT 27.270721 -79.250450 22,875 195 415 -1344
2019-04-19 12:53:03 GMT 27.280636 -79.247658 23,000 195 419 -1216
2019-04-19 12:52:59 GMT 27.288940 -79.245270 23,100 195 425 -1024
2019-04-19 12:52:54 GMT 27.296974 -79.242958 23,150 195 428 -960
2019-04-19 12:52:47 GMT 27.312424 -79.238525 23,575 195 432 -2816
2019-04-19 12:52:43 GMT 27.319460 -79.236511 23,400 195 433 -1920
2019-04-19 12:52:36 GMT 27.333252 -79.232513 23,700 195 431 -2880
2019-04-19 12:52:32 GMT 27.339849 -79.230598 23,850 195 430 -1536
2019-04-19 12:52:25 GMT 27.355305 -79.226059 23,975 195 432 -64
2019-04-19 12:52:19 GMT 27.364838 -79.223289 23,975 195 432 0
2019-04-19 12:52:14 GMT 27.374359 -79.220551 23,975 195 432 -64
2019-04-19 12:52:11 GMT 27.389877 -79.215988 24,000 195 432 0
2019-04-19 12:52:07 GMT 27.389877 -79.215988 24,000 195 432 0
2019-04-19 12:52:01 GMT 27.399763 -79.213066 24,000 195 432 -64
2019-04-19 12:51:58 GMT 27.405533 -79.211372 24,000 195 431 -64
2019-04-19 12:51:52 GMT 27.418716 -79.207542 24,000 195 431 0
2019-04-19 12:51:48 GMT 27.426270 -79.205315 24,000 195 431 0
2019-04-19 12:51:40 GMT 27.451202 -79.198013 23,975 195 430 -64
2019-04-19 12:51:35 GMT 27.451202 -79.198013 23,975 195 430 0
2019-04-19 12:51:29 GMT 27.463577 -79.194427 24,000 195 430 0
2019-04-19 12:51:25 GMT 27.471731 -79.192093 24,000 195 430 0
2019-04-19 12:51:17 GMT 27.487976 -79.187325 24,000 195 430 0
2019-04-19 12:51:12 GMT 27.496872 -79.184753 23,975 195 430 64
2019-04-19 12:51:06 GMT 27.508301 -79.181473 23,975 195 430 64
2019-04-19 12:50:58 GMT 27.524151 -79.176880 23,975 195 430 0
2019-04-19 12:50:55 GMT 27.528620 -79.175560 23,975 195 431 64
2019-04-19 12:50:49 GMT 27.539429 -79.172401 23,975 195 431 128
2019-04-19 12:50:46 GMT 27.546982 -79.170227 23,975 195 431 128
2019-04-19 12:50:43 GMT 27.550871 -79.169067 23,975 195 431 128
2019-04-19 12:50:35 GMT 27.566162 -79.164627 24,000 195 431 64
2019-04-19 12:50:32 GMT 27.572750 -79.162727 23,975 195 431 64
2019-04-19 12:50:28 GMT 27.580124 -79.160591 23,975 195 433 -640
2019-04-19 12:50:25 GMT 27.588903 -79.158081 24,025 195 433 -640
2019-04-19 12:50:21 GMT 27.593353 -79.156807 24,050 195 434 -896
2019-04-19 12:50:14 GMT 27.609760 -79.152107 24,225 195 436 -1664
2019-04-19 12:50:10 GMT 27.615051 -79.150589 24,300 195 436 -2048
2019-04-19 12:50:03 GMT 27.630981 -79.146027 24,625 195 439 -2624
2019-04-19 12:50:00 GMT 27.636703 -79.144417 24,750 195 441 -2496
2019-04-19 12:49:49 GMT 27.659386 -79.137901 25,175 195 449 -2304
2019-04-19 12:49:41 GMT 27.675678 -79.133148 25,475 195 452 -1984
2019-04-19 12:49:37 GMT 27.683964 -79.130722 26,350 196 451 -1984
2019-04-19 12:49:30 GMT 27.696207 -79.127129 25,850 195 453 -2496
2019-04-19 12:49:24 GMT 27.707985 -79.123589 26,100 195 453 -2304
2019-04-19 12:49:19 GMT 27.718506 -79.120422 26,300 195 452 -1920
2019-04-19 12:49:14 GMT 27.730471 -79.116829 26,525 196 451 -2432
2019-04-19 12:49:07 GMT 27.742947 -79.113022 26,850 195 448 -3200
2019-04-19 12:49:04 GMT 27.748581 -79.111359 27,400 195 438 -3904
2019-04-19 12:48:56 GMT 27.765570 -79.106262 27,650 195 443 -4096
2019-04-19 12:48:52 GMT 27.771515 -79.104462 27,775 195 443 -4096
2019-04-19 12:48:42 GMT 27.792757 -79.098183 28,475 195 441 -4032
2019-04-19 12:48:32 GMT 27.810959 -79.092903 29,075 195 439 -3904
2019-04-19 12:48:28 GMT 27.819431 -79.090469 29,350 195 438 -4032
2019-04-19 12:48:20 GMT 27.835556 -79.085915 29,850 194 437 -3008
2019-04-19 12:48:10 GMT 27.856339 -79.080261 30,175 194 442 -960
2019-04-19 12:47:58 GMT 27.878647 -79.074203 30,450 194 443 -960
2019-04-19 12:47:50 GMT 27.896614 -79.069397 30,500 194 443 -960
2019-04-19 12:47:47 GMT 27.901642 -79.068024 30,550 194 443 -960
2019-04-19 12:47:37 GMT 27.922394 -79.062439 30,725 194 442 -960
2019-04-19 12:47:26 GMT 27.943958 -79.056702 30,900 194 441 -960
2019-04-19 12:47:15 GMT 27.966722 -79.050613 31,125 194 441 -960
2019-04-19 12:47:04 GMT 27.988632 -79.044731 31,250 194 442 -960
2019-04-19 12:46:53 GMT 28.010157 -79.038933 31,425 194 441 -960
2019-04-19 12:46:42 GMT 28.031662 -79.033165 31,600 194 442 -1024
2019-04-19 12:46:31 GMT 28.053818 -79.027191 31,775 194 442 -1088
2019-04-19 12:46:18 GMT 28.080505 -79.020012 31,975 194 441 -576
2019-04-19 12:46:11 GMT 28.091854 -79.016907 31,975 194 441 0
2019-04-19 12:46:08 GMT 28.099211 -79.014854 31,975 194 441 0
2019-04-19 12:46:01 GMT 28.112549 -79.011246 31,975 190 443 0
2019-04-19 12:45:58 GMT 28.118576 -79.009850 31,975 190 443 0
2019-04-19 12:45:55 GMT 28.125046 -79.008545 31,975 190 443 0
2019-04-19 12:45:50 GMT 28.135010 -79.006943 31,975 187 445 0
2019-04-19 12:45:46 GMT 28.144646 -79.005753 31,975 184 446 -64
2019-04-19 12:45:39 GMT 28.157400 -79.004837 32,000 182 447 0
2019-04-19 12:45:35 GMT 28.166712 -79.004677 32,000 178 448 0
2019-04-19 12:45:24 GMT 28.190359 -79.006134 32,000 173 451 0
2019-04-19 12:45:21 GMT 28.197203 -79.007103 31,975 171 451 0
2019-04-19 12:45:12 GMT 28.214985 -79.010384 31,975 170 452 0
2019-04-19 12:45:08 GMT 28.222229 -79.011772 31,975 170 452 0
2019-04-19 12:44:57 GMT 28.243057 -79.015732 31,975 170 452 0
2019-04-19 12:44:51 GMT 28.258139 -79.018570 31,975 170 452 0
2019-04-19 12:44:47 GMT 28.264343 -79.019798 31,975 170 452 0
2019-04-19 12:44:37 GMT 28.285583 -79.023865 31,975 170 451 0
2019-04-19 12:44:27 GMT 28.305222 -79.027405 31,975 173 450 64
2019-04-19 12:44:15 GMT 28.332001 -79.030312 31,975 176 448 0
2019-04-19 12:44:05 GMT 28.353333 -79.030998 31,975 181 446 0
2019-04-19 12:43:53 GMT 28.375870 -79.030151 32,000 185 444 0
2019-04-19 12:43:44 GMT 28.395538 -79.027985 31,975 187 444 64
2019-04-19 12:43:32 GMT 28.418793 -79.024925 31,975 187 444 0
2019-04-19 12:43:22 GMT 28.440020 -79.022072 31,975 187 444 0
2019-04-19 12:43:09 GMT 28.466555 -79.018570 31,975 187 443 0
2019-04-19 12:42:59 GMT 28.486542 -79.015945 31,975 187 442 0
2019-04-19 12:42:49 GMT 28.507799 -79.013130 31,975 187 442 0
2019-04-19 12:42:38 GMT 28.553282 -79.007156 31,975 187 442 0
2019-04-19 12:42:26 GMT 28.553282 -79.007156 31,975 187 442 0
2019-04-19 12:42:13 GMT 28.582190 -79.003334 31,975 187 442 0
2019-04-19 12:42:04 GMT 28.600113 -79.000992 31,975 187 442 0
2019-04-19 12:41:53 GMT 28.621490 -78.998146 31,975 187 441 0
2019-04-19 12:41:41 GMT 28.644882 -78.995026 31,975 187 441 0
2019-04-19 12:41:32 GMT 28.665848 -78.992279 31,975 187 441 0
2019-04-19 12:41:19 GMT 28.690247 -78.989006 31,975 187 442 0
2019-04-19 12:41:09 GMT 28.712402 -78.986046 31,975 187 442 0
2019-04-19 12:40:58 GMT 28.734789 -78.983086 31,975 187 442 0
2019-04-19 12:40:45 GMT 28.769119 -78.978493 31,975 187 441 0
2019-04-19 12:40:41 GMT 28.769119 -78.978493 31,975 187 441 0
2019-04-19 12:40:35 GMT 28.780687 -78.976944 31,975 187 441 0
2019-04-19 12:40:25 GMT 28.799170 -78.974464 31,975 187 441 0
2019-04-19 12:40:22 GMT 28.805237 -78.973633 31,975 187 441 0
2019-04-19 12:40:19 GMT 28.811739 -78.972740 31,975 187 441 0
2019-04-19 12:40:13 GMT 28.826981 -78.970680 31,975 187 441 0
2019-04-19 12:40:02 GMT 28.858017 -78.966507 31,975 187 441 0
2019-04-19 12:39:54 GMT 28.864288 -78.965660 31,975 187 441 0
2019-04-19 12:39:50 GMT 28.873032 -78.964500 31,975 187 440 0
2019-04-19 12:39:40 GMT 28.893951 -78.961754 31,975 187 440 0
2019-04-19 12:39:31 GMT 28.909359 -78.959763 31,975 187 440 0
2019-04-19 12:39:25 GMT 28.923557 -78.957878 31,975 187 440 0
2019-04-19 12:39:18 GMT 28.937943 -78.955994 31,975 187 440 0
2019-04-19 12:39:06 GMT 28.962290 -78.952812 31,975 187 440 0
2019-04-19 12:38:55 GMT 28.984215 -78.949959 31,975 187 440 0
2019-04-19 12:38:44 GMT 29.006327 -78.946999 31,975 187 440 0
2019-04-19 12:38:33 GMT 29.029404 -78.943901 31,975 187 439 0
2019-04-19 12:38:21 GMT 29.051109 -78.941025 31,975 187 440 0
2019-04-19 12:38:11 GMT 29.072388 -78.938141 31,975 187 440 0
2019-04-19 12:38:00 GMT 29.095894 -78.934937 31,975 187 440 0
2019-04-19 12:37:50 GMT 29.116150 -78.932228 31,975 187 440 0
2019-04-19 12:37:37 GMT 29.141096 -78.928795 31,975 187 440 0
2019-04-19 12:37:23 GMT 29.168608 -78.925133 31,975 187 440 0
2019-04-19 12:37:16 GMT 29.183784 -78.923035 31,975 187 440 0
2019-04-19 12:37:06 GMT 29.204639 -78.920181 31,975 187 438 0
2019-04-19 12:36:55 GMT 29.227449 -78.917000 31,975 187 439 0
2019-04-19 12:36:41 GMT 29.253706 -78.913452 31,975 187 439 0
2019-04-19 12:36:32 GMT 29.274513 -78.910645 31,975 187 438 0
2019-04-19 12:36:21 GMT 29.295555 -78.907845 31,975 187 438 0
2019-04-19 12:36:11 GMT 29.315735 -78.905235 31,975 187 438 0
2019-04-19 12:36:00 GMT 29.337545 -78.902351 31,975 187 438 0
2019-04-19 12:35:49 GMT 29.360550 -78.899269 31,975 187 437 0
2019-04-19 12:35:35 GMT 29.386192 -78.895836 31,975 187 437 0
2019-04-19 12:35:26 GMT 29.406910 -78.893036 32,000 187 437 0
2019-04-19 12:35:17 GMT 29.423620 -78.890831 31,975 187 437 64
2019-04-19 12:35:13 GMT 29.430496 -78.889915 31,975 187 439 0
2019-04-19 12:35:08 GMT 29.444275 -78.888069 31,975 187 441 -64
2019-04-19 12:35:02 GMT 29.454620 -78.886642 31,975 187 441 0
2019-04-19 12:34:51 GMT 29.475540 -78.883842 31,975 187 441 0
2019-04-19 12:34:47 GMT 29.484280 -78.882645 31,975 187 441 0
2019-04-19 12:34:41 GMT 29.498291 -78.880783 32,000 187 441 0
2019-04-19 12:34:33 GMT 29.514496 -78.878563 31,975 187 441 0
2019-04-19 12:34:28 GMT 29.522219 -78.877525 31,975 187 441 0
2019-04-19 12:34:14 GMT 29.554293 -78.873222 31,975 187 440 0
2019-04-19 12:34:03 GMT 29.572952 -78.870743 31,975 187 440 0
2019-04-19 12:33:53 GMT 29.594049 -78.867996 31,975 187 440 0
2019-04-19 12:33:43 GMT 29.615936 -78.865143 31,975 187 440 0
2019-04-19 12:33:23 GMT 29.655127 -78.860184 31,975 187 440 0
2019-04-19 12:33:20 GMT 29.661209 -78.859444 31,975 187 440 0
2019-04-19 12:33:05 GMT 29.694042 -78.855339 31,975 187 439 0
2019-04-19 12:32:58 GMT 29.708242 -78.853615 31,975 187 439 0
2019-04-19 12:32:20 GMT 29.781935 -78.843277 31,975 189 437 0
2019-04-19 12:31:42 GMT 29.858746 -78.830025 31,975 189 437 0
2019-04-19 12:31:33 GMT 29.877182 -78.826904 31,975 189 436 0
2019-04-19 12:31:17 GMT 29.911209 -78.820976 31,975 189 436 0
2019-04-19 12:31:10 GMT 29.924849 -78.818665 31,975 189 436 0
2019-04-19 12:31:01 GMT 29.942230 -78.815651 31,975 189 436 0
2019-04-19 12:30:49 GMT 29.963470 -78.811935 31,975 189 436 -64
2019-04-19 12:30:39 GMT 29.986345 -78.808006 31,975 189 436 64
2019-04-19 12:30:11 GMT 30.041061 -78.798523 31,975 189 437 0
We lost coverage of the aircraft here for a total of 21 minutes
2019-04-19 12:08:49 GMT 32.496349 -78.021988 32,000 198 424 -64
2019-04-19 12:08:41 GMT 32.511711 -78.016273 31,975 198 424 0
2019-04-19 12:08:32 GMT 32.527817 -78.010277 32,000 198 423 0
2019-04-19 12:08:19 GMT 32.553654 -78.000572 32,000 198 424 0
2019-04-19 12:08:13 GMT 32.565445 -77.996117 31,975 198 424 64
2019-04-19 12:07:47 GMT 32.612217 -77.978264 31,975 198 424 0
2019-04-19 12:07:33 GMT 32.639729 -77.967728 31,975 198 424 64
2019-04-19 12:07:07 GMT 32.688332 -77.949120 31,975 198 427 0
2019-04-19 12:06:58 GMT 32.706436 -77.942284 31,975 198 427 0
2019-04-19 12:06:26 GMT 32.766998 -77.920090 31,975 197 429 64
2019-04-19 12:06:14 GMT 32.789349 -77.912292 31,975 197 429 0
2019-04-19 12:06:00 GMT 32.815933 -77.903229 31,975 197 429 0
2019-04-19 12:05:53 GMT 32.828751 -77.898834 31,975 197 430 0
2019-04-19 12:05:26 GMT 32.879379 -77.880486 31,975 198 428 0
2019-04-19 12:05:20 GMT 32.892609 -77.875435 31,975 199 429 0
2019-04-19 12:05:10 GMT 32.909821 -77.868790 31,975 198 429 64
2019-04-19 12:04:59 GMT 32.931244 -77.860603 31,975 198 429 -64
2019-04-19 12:04:50 GMT 32.949768 -77.853439 31,975 199 430 0
2019-04-19 12:04:37 GMT 32.972206 -77.844864 31,975 198 432 0
2019-04-19 12:04:28 GMT 32.989929 -77.838188 31,975 198 431 0
2019-04-19 12:04:17 GMT 33.013355 -77.829391 31,975 198 431 64
2019-04-19 12:04:07 GMT 33.031631 -77.822533 31,975 198 431 0
2019-04-19 12:03:55 GMT 33.052002 -77.814896 32,000 198 431 0
2019-04-19 12:03:44 GMT 33.073875 -77.806686 31,975 198 431 64
2019-04-19 12:03:34 GMT 33.093521 -77.799355 31,975 198 431 0
2019-04-19 12:03:24 GMT 33.114304 -77.791550 32,000 198 431 0
2019-04-19 12:03:09 GMT 33.139801 -77.782051 31,975 198 431 0
2019-04-19 12:03:01 GMT 33.155457 -77.776169 31,975 198 432 0
2019-04-19 12:02:51 GMT 33.174892 -77.768852 31,975 198 432 0
2019-04-19 12:02:40 GMT 33.197006 -77.760559 31,975 198 432 0
2019-04-19 12:02:30 GMT 33.215672 -77.753548 32,000 198 432 0
2019-04-19 12:02:20 GMT 33.235519 -77.746071 31,975 198 432 0
2019-04-19 12:02:08 GMT 33.256119 -77.738266 31,975 198 432 0
2019-04-19 12:01:58 GMT 33.275620 -77.730965 31,975 198 432 0
2019-04-19 12:01:47 GMT 33.296860 -77.723000 31,975 198 432 0
2019-04-19 12:01:37 GMT 33.316551 -77.715607 31,975 198 433 64
2019-04-19 12:01:26 GMT 33.339363 -77.707031 31,975 198 434 0
2019-04-19 12:01:15 GMT 33.357376 -77.700256 31,975 198 434 0
2019-04-19 12:01:05 GMT 33.377304 -77.692734 32,000 198 434 0
2019-04-19 12:00:55 GMT 33.397247 -77.685150 32,000 198 434 0
2019-04-19 12:00:44 GMT 33.417942 -77.677322 31,975 198 435 64
2019-04-19 12:00:34 GMT 33.438675 -77.669441 32,000 198 435 -64
2019-04-19 12:00:23 GMT 33.458675 -77.661850 32,000 198 435 0
2019-04-19 12:00:12 GMT 33.479206 -77.653999 31,975 198 434 0
2019-04-19 12:00:01 GMT 33.499363 -77.646378 31,975 198 434 0
2019-04-19 11:59:51 GMT 33.519699 -77.638680 32,000 198 431 0
2019-04-19 11:59:41 GMT 33.561172 -77.623116 31,975 198 431 0
2019-04-19 11:59:29 GMT 33.561172 -77.623116 32,000 198 430 0
2019-04-19 11:59:20 GMT 33.580177 -77.616005 32,000 198 429 0
2019-04-19 11:59:09 GMT 33.599899 -77.608597 32,000 198 427 0
2019-04-19 11:58:58 GMT 33.620819 -77.600670 31,975 198 426 0
2019-04-19 11:58:47 GMT 33.641922 -77.592682 31,975 198 426 0
2019-04-19 11:58:35 GMT 33.664017 -77.584358 31,975 198 426 0
2019-04-19 11:58:27 GMT 33.680592 -77.578072 31,975 198 427 0
2019-04-19 11:58:16 GMT 33.700012 -77.570648 31,975 198 427 -64
2019-04-19 11:58:04 GMT 33.730404 -77.559013 31,975 198 428 0
2019-04-19 11:57:58 GMT 33.734730 -77.557297 31,975 198 428 0
2019-04-19 11:57:50 GMT 33.751163 -77.551003 31,975 198 428 64
2019-04-19 11:57:38 GMT 33.770050 -77.543747 31,975 198 428 -192
2019-04-19 11:57:27 GMT 33.791245 -77.535606 32,000 198 428 64
2019-04-19 11:57:17 GMT 33.810837 -77.528107 31,975 198 427 64
2019-04-19 11:57:06 GMT 33.832119 -77.519989 31,975 198 426 -64
2019-04-19 11:56:56 GMT 33.851810 -77.512436 32,000 198 423 -64
2019-04-19 11:56:45 GMT 33.871407 -77.504883 31,975 198 422 64
2019-04-19 11:56:34 GMT 33.891659 -77.497101 31,975 198 420 0
2019-04-19 11:56:23 GMT 33.911316 -77.489601 32,000 198 419 64
2019-04-19 11:56:14 GMT 33.930622 -77.482224 31,975 198 419 -64
2019-04-19 11:56:11 GMT 33.933369 -77.481194 32,000 198 419 64
2019-04-19 11:56:05 GMT 33.945419 -77.476593 31,975 198 421 0
2019-04-19 11:56:01 GMT 33.952457 -77.473930 31,975 198 419 0
2019-04-19 11:55:51 GMT 33.971741 -77.466560 31,975 198 420 0
2019-04-19 11:55:43 GMT 33.984901 -77.461571 31,975 198 421 0
2019-04-19 11:55:40 GMT 33.991421 -77.459045 31,975 198 421 64
2019-04-19 11:55:30 GMT 34.011887 -77.451202 32,000 198 421 0
2019-04-19 11:55:23 GMT 34.025452 -77.445946 31,975 198 422 64
2019-04-19 11:55:18 GMT 34.032898 -77.443130 31,975 198 422 64
2019-04-19 11:55:11 GMT 34.045212 -77.438423 31,975 198 423 0
2019-04-19 11:55:08 GMT 34.050980 -77.436180 31,975 198 423 0
2019-04-19 11:54:58 GMT 34.071163 -77.428436 32,000 198 424 0
2019-04-19 11:54:49 GMT 34.088387 -77.421860 31,975 198 424 0
2019-04-19 11:54:46 GMT 34.091183 -77.420769 31,975 198 424 0
2019-04-19 11:54:39 GMT 34.105007 -77.415443 31,975 198 425 0
2019-04-19 11:54:36 GMT 34.111404 -77.413033 31,975 198 425 0
2019-04-19 11:54:28 GMT 34.126373 -77.407265 31,975 198 425 0
2019-04-19 11:54:25 GMT 34.131077 -77.405495 31,975 198 425 0
2019-04-19 11:54:19 GMT 34.144775 -77.400192 31,975 198 425 0
2019-04-19 11:54:15 GMT 34.152630 -77.397194 31,975 198 425 0
2019-04-19 11:54:07 GMT 34.165386 -77.392273 31,975 198 426 0
2019-04-19 11:54:04 GMT 34.171417 -77.389938 31,975 198 425 0
2019-04-19 11:53:53 GMT 34.192059 -77.381973 31,975 198 426 0
2019-04-19 11:53:46 GMT 34.205235 -77.376938 31,975 198 426 0
2019-04-19 11:53:41 GMT 34.213661 -77.373672 31,975 198 426 0
2019-04-19 11:53:36 GMT 34.225891 -77.368973 31,975 198 426 0
2019-04-19 11:53:32 GMT 34.232655 -77.366348 31,975 198 426 0
2019-04-19 11:53:24 GMT 34.244888 -77.361633 31,975 198 426 0
2019-04-19 11:53:21 GMT 34.252213 -77.358772 31,975 198 426 0
2019-04-19 11:53:15 GMT 34.264820 -77.353935 32,000 198 426 0
2019-04-19 11:53:09 GMT 34.273293 -77.350677 32,000 198 426 0
2019-04-19 11:53:04 GMT 34.284393 -77.346443 31,975 198 426 0
2019-04-19 11:53:00 GMT 34.292862 -77.343132 31,975 198 426 0
2019-04-19 11:52:53 GMT 34.304855 -77.338539 32,000 198 426 0
2019-04-19 11:52:48 GMT 34.313690 -77.335121 32,000 198 426 0
2019-04-19 11:52:42 GMT 34.327240 -77.329903 32,000 198 425 0
2019-04-19 11:52:37 GMT 34.333786 -77.327324 32,000 198 425 0
2019-04-19 11:52:31 GMT 34.344681 -77.323120 32,000 198 425 0
2019-04-19 11:52:28 GMT 34.353836 -77.319534 32,000 198 425 0
2019-04-19 11:52:24 GMT 34.358917 -77.317574 31,975 198 425 0
2019-04-19 11:52:21 GMT 34.363953 -77.315613 32,000 198 425 0
2019-04-19 11:52:16 GMT 34.374268 -77.311646 32,000 198 425 0
2019-04-19 11:52:10 GMT 34.385880 -77.307091 32,000 198 425 0
2019-04-19 11:52:06 GMT 34.393398 -77.304214 31,975 198 425 0
2019-04-19 11:51:59 GMT 34.405781 -77.299400 31,975 198 425 0
2019-04-19 11:51:55 GMT 34.413437 -77.296440 31,975 198 425 0
2019-04-19 11:51:48 GMT 34.427475 -77.290993 31,975 198 425 0
2019-04-19 11:51:45 GMT 34.433853 -77.288528 32,000 198 424 -64
2019-04-19 11:51:39 GMT 34.443420 -77.284836 32,000 198 424 0
2019-04-19 11:51:33 GMT 34.453499 -77.280922 32,000 198 424 0
2019-04-19 11:51:27 GMT 34.465668 -77.276207 31,975 198 424 0
2019-04-19 11:51:22 GMT 34.473724 -77.273125 32,000 198 424 0
2019-04-19 11:51:16 GMT 34.486038 -77.268356 31,975 198 424 64
2019-04-19 11:51:12 GMT 34.493317 -77.265503 31,975 198 424 0
2019-04-19 11:51:05 GMT 34.506409 -77.260452 31,975 198 424 0
2019-04-19 11:51:02 GMT 34.513687 -77.257599 31,975 198 424 0
2019-04-19 11:50:55 GMT 34.527008 -77.252441 31,975 198 424 -64
2019-04-19 11:50:51 GMT 34.533554 -77.249916 31,975 198 424 0
2019-04-19 11:50:44 GMT 34.547379 -77.244537 32,000 198 424 -64
2019-04-19 11:50:39 GMT 34.555069 -77.241570 32,000 198 424 0
2019-04-19 11:50:33 GMT 34.567749 -77.236633 32,000 198 424 0
2019-04-19 11:50:29 GMT 34.573742 -77.234283 31,975 198 422 0
2019-04-19 11:50:21 GMT 34.589401 -77.228172 31,975 198 422 0
2019-04-19 11:50:18 GMT 34.594086 -77.226334 32,000 198 422 0
2019-04-19 11:50:10 GMT 34.608948 -77.220543 32,000 198 421 0
2019-04-19 11:50:07 GMT 34.613964 -77.218552 32,000 198 421 0
2019-04-19 11:49:59 GMT 34.628815 -77.212753 32,000 198 420 0
2019-04-19 11:49:56 GMT 34.635315 -77.210236 31,975 198 420 0
2019-04-19 11:49:50 GMT 34.648270 -77.205185 32,000 198 420 0
2019-04-19 11:49:45 GMT 34.656605 -77.201958 32,000 198 419 64
2019-04-19 11:49:36 GMT 34.673401 -77.195381 32,000 198 418 0
2019-04-19 11:49:27 GMT 34.688168 -77.189651 32,000 198 418 0
2019-04-19 11:49:24 GMT 34.695335 -77.186852 32,000 198 418 0
2019-04-19 11:49:17 GMT 34.707870 -77.181923 31,975 198 418 0
2019-04-19 11:49:14 GMT 34.713772 -77.179642 31,975 198 418 0
2019-04-19 11:49:07 GMT 34.732067 -77.172546 31,975 198 419 0
2019-04-19 11:49:04 GMT 34.732067 -77.172546 31,975 198 419 0
2019-04-19 11:48:56 GMT 34.747009 -77.166679 31,975 198 419 -64
2019-04-19 11:48:52 GMT 34.752548 -77.164536 31,975 198 419 0
2019-04-19 11:48:43 GMT 34.771729 -77.157036 31,975 198 419 0
2019-04-19 11:48:34 GMT 34.787277 -77.150917 31,975 198 420 64
2019-04-19 11:48:31 GMT 34.792465 -77.148911 31,975 198 420 0
2019-04-19 11:48:24 GMT 34.807110 -77.143188 31,975 198 421 0
2019-04-19 11:48:21 GMT 34.810822 -77.141739 31,975 198 421 0
2019-04-19 11:48:14 GMT 34.825653 -77.135963 31,975 198 421 0
2019-04-19 11:48:11 GMT 34.830479 -77.134033 31,975 198 421 0
2019-04-19 11:48:03 GMT 34.846619 -77.127724 31,975 198 421 0
2019-04-19 11:48:00 GMT 34.850353 -77.126312 31,975 198 421 0
2019-04-19 11:47:52 GMT 34.866882 -77.119843 31,975 198 422 0
2019-04-19 11:47:49 GMT 34.870056 -77.118584 31,975 198 422 0
2019-04-19 11:47:41 GMT 34.885689 -77.112465 31,975 198 422 0
2019-04-19 11:47:38 GMT 34.890343 -77.110634 31,975 198 423 0
2019-04-19 11:47:31 GMT 34.904869 -77.104965 32,000 198 423 0
2019-04-19 11:47:28 GMT 34.909744 -77.103058 32,000 198 423 0
2019-04-19 11:47:20 GMT 34.925766 -77.096779 31,975 198 423 0
2019-04-19 11:47:17 GMT 34.931534 -77.094482 31,975 198 423 0
2019-04-19 11:47:10 GMT 34.944626 -77.089325 31,975 198 424 0
2019-04-19 11:47:06 GMT 34.950806 -77.086914 31,975 198 424 0
2019-04-19 11:46:58 GMT 34.966129 -77.080879 31,975 198 425 0
2019-04-19 11:46:55 GMT 34.970810 -77.079071 31,975 198 425 0
2019-04-19 11:46:48 GMT 34.986568 -77.072868 31,975 198 425 0
2019-04-19 11:46:43 GMT 34.996124 -77.069145 32,000 198 425 0
2019-04-19 11:46:37 GMT 35.004768 -77.065720 31,975 198 425 0
2019-04-19 11:46:30 GMT 35.016953 -77.060966 32,000 198 425 0
2019-04-19 11:46:27 GMT 35.024460 -77.057991 31,975 198 425 0
2019-04-19 11:46:23 GMT 35.031815 -77.055130 31,975 198 426 0
2019-04-19 11:46:16 GMT 35.044373 -77.050201 31,975 199 426 0
2019-04-19 11:46:11 GMT 35.053207 -77.046730 31,975 199 426 0
2019-04-19 11:46:06 GMT 35.064835 -77.042076 31,975 199 425 0
2019-04-19 11:46:00 GMT 35.085072 -77.034073 32,000 199 425 0
2019-04-19 11:45:55 GMT 35.085072 -77.034073 32,000 199 425 0
2019-04-19 11:45:50 GMT 35.092026 -77.031311 32,000 199 425 0
2019-04-19 11:45:44 GMT 35.104752 -77.026268 32,000 199 425 0
2019-04-19 11:45:37 GMT 35.116562 -77.021614 32,000 199 425 0
2019-04-19 11:45:34 GMT 35.124252 -77.018585 32,000 199 425 0
2019-04-19 11:45:29 GMT 35.144657 -77.010498 31,975 199 425 0
2019-04-19 11:45:22 GMT 35.144657 -77.010498 31,975 199 425 0
2019-04-19 11:45:19 GMT 35.152496 -77.007378 31,975 199 425 0
2019-04-19 11:45:12 GMT 35.164124 -77.002724 31,975 199 425 0
2019-04-19 11:45:04 GMT 35.178131 -76.997177 31,975 198 424 0
2019-04-19 11:45:01 GMT 35.184494 -76.994652 31,975 198 424 0
2019-04-19 11:44:56 GMT 35.194748 -76.990585 31,975 198 424 0
2019-04-19 11:44:51 GMT 35.205223 -76.986465 31,975 198 424 0
2019-04-19 11:44:46 GMT 35.213058 -76.983391 31,975 198 424 0
2019-04-19 11:44:39 GMT 35.225052 -76.978622 31,975 198 424 0
2019-04-19 11:44:35 GMT 35.233246 -76.975357 31,975 198 425 0
2019-04-19 11:44:29 GMT 35.246933 -76.969978 31,975 198 424 0
2019-04-19 11:44:25 GMT 35.254242 -76.967117 31,975 198 424 0
2019-04-19 11:44:19 GMT 35.264904 -76.962914 31,975 198 425 0
2019-04-19 11:44:13 GMT 35.275589 -76.958717 31,975 198 425 0
2019-04-19 11:44:05 GMT 35.290558 -76.952820 31,975 198 425 0
2019-04-19 11:44:02 GMT 35.294495 -76.951279 31,975 198 425 0
2019-04-19 11:43:55 GMT 35.307632 -76.946121 31,975 198 425 0
2019-04-19 11:43:51 GMT 35.315506 -76.942986 31,975 198 425 0
2019-04-19 11:43:45 GMT 35.341187 -76.932907 31,975 199 425 0
2019-04-19 11:43:33 GMT 35.359543 -76.925629 31,975 199 425 0
2019-04-19 11:43:22 GMT 35.372299 -76.920540 31,975 199 425 0
2019-04-19 11:43:19 GMT 35.377514 -76.918495 31,975 199 425 0
2019-04-19 11:43:14 GMT 35.386917 -76.914757 31,975 199 425 0
2019-04-19 11:43:07 GMT 35.397762 -76.910431 31,975 199 425 0
2019-04-19 11:43:02 GMT 35.409210 -76.905899 31,975 199 425 0
2019-04-19 11:42:59 GMT 35.415218 -76.903481 31,975 198 425 0
2019-04-19 11:42:50 GMT 35.430038 -76.897659 31,975 198 425 0
2019-04-19 11:42:47 GMT 35.435486 -76.895485 31,975 198 425 0
2019-04-19 11:42:41 GMT 35.456093 -76.887352 31,975 198 425 0
2019-04-19 11:42:36 GMT 35.456093 -76.887352 32,000 198 425 0
2019-04-19 11:42:29 GMT 35.468674 -76.882378 32,000 198 425 0
2019-04-19 11:42:24 GMT 35.481033 -76.877518 32,000 199 425 64
2019-04-19 11:42:19 GMT 35.487980 -76.874725 31,975 199 425 64
2019-04-19 11:42:13 GMT 35.500130 -76.869881 31,975 199 425 0
2019-04-19 11:42:08 GMT 35.509117 -76.866257 31,975 199 425 0
2019-04-19 11:42:05 GMT 35.514378 -76.864151 31,975 199 425 0
2019-04-19 11:41:57 GMT 35.529694 -76.858009 31,975 199 425 0
2019-04-19 11:41:47 GMT 35.549568 -76.850006 31,975 199 425 0
2019-04-19 11:41:36 GMT 35.569794 -76.841927 32,000 199 425 -64
2019-04-19 11:41:23 GMT 35.594727 -76.832008 31,975 199 426 0
2019-04-19 11:41:14 GMT 35.612183 -76.825058 31,975 198 427 0
2019-04-19 11:41:02 GMT 35.631454 -76.817436 31,975 198 431 -64
2019-04-19 11:40:52 GMT 35.651192 -76.809570 31,975 199 433 0
2019-04-19 11:40:41 GMT 35.672749 -76.800919 31,975 199 434 -64
2019-04-19 11:40:33 GMT 35.688812 -76.794548 32,000 199 434 64
2019-04-19 11:40:21 GMT 35.711758 -76.785316 31,975 199 434 0
2019-04-19 11:40:10 GMT 35.753235 -76.768600 31,975 199 434 0
2019-04-19 11:39:59 GMT 35.753235 -76.768600 31,975 199 434 0
2019-04-19 11:39:55 GMT 35.760315 -76.765762 31,975 199 434 -64
2019-04-19 11:39:47 GMT 35.775009 -76.759811 31,975 199 434 0
2019-04-19 11:39:36 GMT 35.796062 -76.751305 31,975 199 434 0
2019-04-19 11:39:29 GMT 35.811127 -76.745224 31,975 199 434 -64
2019-04-19 11:39:25 GMT 35.817245 -76.742775 31,975 199 434 -64
2019-04-19 11:39:16 GMT 35.836750 -76.734886 31,975 199 434 0
2019-04-19 11:39:08 GMT 35.851879 -76.728806 31,975 199 433 0
2019-04-19 11:39:05 GMT 35.856445 -76.726974 31,975 199 435 0
2019-04-19 11:38:57 GMT 35.872147 -76.720673 31,975 199 435 -64
2019-04-19 11:38:54 GMT 35.876953 -76.718735 31,975 199 435 -64
2019-04-19 11:38:47 GMT 35.892426 -76.712502 32,000 199 434 0
2019-04-19 11:38:44 GMT 35.897221 -76.710571 32,000 199 434 64
2019-04-19 11:38:39 GMT 35.905289 -76.707397 31,975 199 434 64
2019-04-19 11:38:36 GMT 35.912155 -76.704597 31,975 199 433 0
2019-04-19 11:38:33 GMT 35.918060 -76.702248 31,975 199 433 0
2019-04-19 11:38:26 GMT 35.932388 -76.696472 31,975 199 433 0
2019-04-19 11:38:21 GMT 35.940235 -76.693336 31,975 199 433 0
2019-04-19 11:38:14 GMT 35.953354 -76.688004 31,975 199 431 0
2019-04-19 11:38:10 GMT 35.961372 -76.684807 32,000 199 432 0
2019-04-19 11:38:01 GMT 35.978119 -76.678047 32,000 199 432 0
2019-04-19 11:37:54 GMT 35.993118 -76.671951 32,000 199 431 0
2019-04-19 11:37:46 GMT 36.008717 -76.665634 31,975 199 432 0
2019-04-19 11:37:40 GMT 36.018768 -76.661568 31,975 199 432 -64
2019-04-19 11:37:32 GMT 36.033806 -76.655525 32,000 199 431 0
2019-04-19 11:37:27 GMT 36.042324 -76.652077 32,000 199 431 0
2019-04-19 11:37:21 GMT 36.054893 -76.647057 31,975 199 431 64
2019-04-19 11:37:17 GMT 36.064178 -76.643311 31,975 199 431 0
2019-04-19 11:37:11 GMT 36.075191 -76.638870 31,975 199 431 64
2019-04-19 11:37:07 GMT 36.092880 -76.631744 31,975 199 431 0
2019-04-19 11:36:59 GMT 36.096680 -76.630211 31,975 199 432 0
2019-04-19 11:36:56 GMT 36.102402 -76.627922 31,975 199 432 0
2019-04-19 11:36:49 GMT 36.115494 -76.622658 31,975 199 432 0
2019-04-19 11:36:46 GMT 36.121185 -76.620346 32,000 199 432 0
2019-04-19 11:36:39 GMT 36.135818 -76.614471 32,000 199 432 0
2019-04-19 11:36:34 GMT 36.142693 -76.611694 32,000 199 431 0
2019-04-19 11:36:30 GMT 36.150841 -76.608368 32,000 199 431 -64
2019-04-19 11:36:27 GMT 36.156143 -76.606239 32,000 199 431 -64
2019-04-19 11:36:24 GMT 36.163559 -76.603203 32,000 199 431 0
2019-04-19 11:36:17 GMT 36.176468 -76.597939 32,000 199 431 0
2019-04-19 11:36:12 GMT 36.187271 -76.593536 32,000 199 431 0
2019-04-19 11:36:07 GMT 36.196381 -76.589867 31,975 199 431 64
2019-04-19 11:36:03 GMT 36.204163 -76.586662 31,975 199 432 0
2019-04-19 11:35:56 GMT 36.216339 -76.581741 31,975 199 432 0
2019-04-19 11:35:50 GMT 36.227737 -76.577110 31,975 199 432 0
2019-04-19 11:35:45 GMT 36.236298 -76.573624 31,975 199 432 0
2019-04-19 11:35:41 GMT 36.246223 -76.569626 31,975 199 433 -64
2019-04-19 11:35:37 GMT 36.254230 -76.566406 31,975 199 432 0
2019-04-19 11:35:34 GMT 36.256886 -76.565300 31,975 199 432 0
2019-04-19 11:35:29 GMT 36.266968 -76.561203 31,975 199 432 0
2019-04-19 11:35:24 GMT 36.276855 -76.557236 32,000 199 432 0
2019-04-19 11:35:20 GMT 36.286606 -76.553307 32,000 199 432 0
2019-04-19 11:35:13 GMT 36.298176 -76.548645 32,000 199 432 0
2019-04-19 11:35:08 GMT 36.306370 -76.545311 32,000 199 432 0
2019-04-19 11:35:03 GMT 36.318192 -76.540543 32,000 199 432 0
2019-04-19 11:34:58 GMT 36.325783 -76.537483 32,000 199 432 0
2019-04-19 11:34:55 GMT 36.333572 -76.534370 32,000 199 432 0
2019-04-19 11:34:52 GMT 36.338516 -76.532364 32,000 199 432 0
2019-04-19 11:34:48 GMT 36.346870 -76.528954 32,000 199 432 0
2019-04-19 11:34:41 GMT 36.359066 -76.524040 31,975 199 432 0
2019-04-19 11:34:37 GMT 36.368408 -76.520287 32,000 199 432 -64
2019-04-19 11:34:34 GMT 36.373497 -76.518196 32,000 199 432 -64
2019-04-19 11:34:31 GMT 36.379410 -76.515800 32,000 199 432 -64
2019-04-19 11:34:26 GMT 36.387405 -76.512566 32,000 199 432 0
2019-04-19 11:34:20 GMT 36.399380 -76.507736 32,000 199 431 0
2019-04-19 11:34:17 GMT 36.406410 -76.504814 32,000 201 432 0
2019-04-19 11:34:13 GMT 36.413910 -76.501411 31,975 204 431 0
2019-04-19 11:34:09 GMT 36.419632 -76.498550 31,975 203 431 0
2019-04-19 11:34:05 GMT 36.428474 -76.493889 31,975 204 431 0
2019-04-19 11:34:02 GMT 36.431969 -76.492073 31,975 204 431 0
2019-04-19 11:33:59 GMT 36.440208 -76.487694 31,975 204 431 0
2019-04-19 11:33:54 GMT 36.447002 -76.484131 31,975 204 432 0
2019-04-19 11:33:49 GMT 36.456036 -76.479393 31,975 204 432 0
2019-04-19 11:33:46 GMT 36.461563 -76.476463 31,975 204 432 0
2019-04-19 11:33:43 GMT 36.467442 -76.473373 31,975 204 432 0
2019-04-19 11:33:37 GMT 36.478683 -76.467422 31,975 204 432 0
2019-04-19 11:33:32 GMT 36.487133 -76.462975 31,975 204 432 0
2019-04-19 11:33:27 GMT 36.497818 -76.457291 31,975 204 432 0
2019-04-19 11:33:24 GMT 36.500771 -76.455727 31,975 204 432 0
2019-04-19 11:33:19 GMT 36.510727 -76.450478 31,975 204 432 0
2019-04-19 11:33:13 GMT 36.521393 -76.444817 31,975 204 432 0
2019-04-19 11:33:08 GMT 36.530823 -76.439835 31,975 204 432 0
2019-04-19 11:33:03 GMT 36.539829 -76.435043 31,975 204 433 0
2019-04-19 11:32:59 GMT 36.550186 -76.429596 31,975 204 434 0
2019-04-19 11:32:55 GMT 36.556274 -76.426331 31,975 204 434 0
2019-04-19 11:32:48 GMT 36.578979 -76.414314 31,975 204 435 0
2019-04-19 11:32:42 GMT 36.578979 -76.414314 31,975 204 435 0
2019-04-19 11:32:39 GMT 36.595825 -76.405396 31,975 204 435 0
2019-04-19 11:32:34 GMT 36.605793 -76.400040 31,975 204 435 0
2019-04-19 11:32:28 GMT 36.605793 -76.400040 31,975 204 435 0
2019-04-19 11:32:23 GMT 36.615234 -76.395035 31,975 204 435 0
2019-04-19 11:32:16 GMT 36.634705 -76.384666 32,000 204 436 0
2019-04-19 11:32:13 GMT 36.634705 -76.384666 31,975 204 436 0
2019-04-19 11:32:06 GMT 36.645309 -76.379066 32,000 204 436 0
2019-04-19 11:32:01 GMT 36.654419 -76.374207 32,000 204 437 0
2019-04-19 11:31:55 GMT 36.665379 -76.368423 32,000 204 437 0
2019-04-19 11:31:50 GMT 36.675575 -76.362930 31,975 204 437 64
2019-04-19 11:31:46 GMT 36.694012 -76.353111 31,975 204 437 0
2019-04-19 11:31:41 GMT 36.694012 -76.353111 31,975 204 437 0
2019-04-19 11:31:34 GMT 36.704624 -76.347443 31,975 204 437 0
2019-04-19 11:31:30 GMT 36.714680 -76.342064 31,975 204 438 0
2019-04-19 11:31:23 GMT 36.734417 -76.331490 31,975 204 438 0
2019-04-19 11:31:19 GMT 36.734417 -76.331490 32,000 204 438 0
2019-04-19 11:31:12 GMT 36.746933 -76.324821 32,000 204 438 0
2019-04-19 11:31:08 GMT 36.754387 -76.320854 31,975 204 438 64
2019-04-19 11:31:04 GMT 36.761326 -76.317169 31,975 204 439 0
2019-04-19 11:31:01 GMT 36.768585 -76.313255 31,975 204 439 0
2019-04-19 11:30:58 GMT 36.774582 -76.310059 31,975 204 439 0
2019-04-19 11:30:50 GMT 36.787861 -76.302971 31,975 204 439 -64
2019-04-19 11:30:47 GMT 36.793854 -76.299767 32,000 204 439 0
2019-04-19 11:30:43 GMT 36.800941 -76.295959 31,975 204 439 0
2019-04-19 11:30:39 GMT 36.807877 -76.292274 31,975 204 439 0
2019-04-19 11:30:36 GMT 36.814812 -76.288597 31,975 204 439 -64
2019-04-19 11:30:30 GMT 36.826218 -76.282455 32,000 204 439 0
2019-04-19 11:30:24 GMT 36.835388 -76.277611 32,000 204 439 0
2019-04-19 11:30:21 GMT 36.842327 -76.273872 32,000 204 440 0
2019-04-19 11:30:18 GMT 36.848099 -76.270767 32,000 204 440 0
2019-04-19 11:30:13 GMT 36.855778 -76.266670 32,000 204 440 0
2019-04-19 11:30:08 GMT 36.868908 -76.259689 31,975 204 440 0
2019-04-19 11:30:04 GMT 36.875290 -76.256279 31,975 204 440 0
2019-04-19 11:29:59 GMT 36.885014 -76.251091 31,975 204 440 0
2019-04-19 11:29:50 GMT 36.899094 -76.243538 31,975 204 441 0
2019-04-19 11:29:45 GMT 36.911087 -76.237114 31,975 204 442 0
2019-04-19 11:29:40 GMT 36.924072 -76.230186 31,975 204 442 0
2019-04-19 11:29:34 GMT 36.929901 -76.227058 31,975 204 442 0
2019-04-19 11:29:28 GMT 36.947342 -76.217712 31,975 204 442 0
2019-04-19 11:29:22 GMT 36.953201 -76.214554 31,975 204 442 0
2019-04-19 11:29:19 GMT 36.958660 -76.211678 31,975 204 442 0
2019-04-19 11:29:14 GMT 36.970299 -76.205414 31,975 204 442 0
2019-04-19 11:29:09 GMT 36.977417 -76.201584 31,975 204 442 0
2019-04-19 11:29:05 GMT 36.985153 -76.197433 31,975 204 442 0
2019-04-19 11:29:02 GMT 36.990780 -76.194366 31,975 204 442 0
2019-04-19 11:28:56 GMT 37.000900 -76.188904 31,975 204 442 0
2019-04-19 11:28:52 GMT 37.009552 -76.184227 31,975 204 442 0
2019-04-19 11:28:48 GMT 37.017082 -76.180153 31,975 204 442 0
2019-04-19 11:28:42 GMT 37.028160 -76.174187 31,975 204 442 0
2019-04-19 11:28:37 GMT 37.037384 -76.169266 32,000 204 442 0
2019-04-19 11:28:30 GMT 37.051300 -76.161728 31,975 204 442 0
2019-04-19 11:28:25 GMT 37.058990 -76.157578 32,000 204 442 0
2019-04-19 11:28:19 GMT 37.072906 -76.150101 31,975 204 442 0
2019-04-19 11:28:14 GMT 37.085312 -76.143433 32,000 204 442 0
2019-04-19 11:28:11 GMT 37.085312 -76.143433 32,000 204 442 0
2019-04-19 11:28:08 GMT 37.090759 -76.140511 31,975 204 442 0
2019-04-19 11:28:05 GMT 37.096619 -76.137360 32,000 204 442 0
2019-04-19 11:28:01 GMT 37.106552 -76.131981 31,975 204 442 0
2019-04-19 11:27:58 GMT 37.111267 -76.129471 31,975 204 442 0
2019-04-19 11:27:54 GMT 37.117081 -76.126312 31,975 204 442 0
2019-04-19 11:27:50 GMT 37.131554 -76.118538 32,000 204 442 -64
2019-04-19 11:27:42 GMT 37.141331 -76.113281 32,000 204 442 0
2019-04-19 11:27:39 GMT 37.156738 -76.104980 32,000 204 442 0
2019-04-19 11:27:33 GMT 37.156738 -76.104980 32,000 204 442 0
2019-04-19 11:27:28 GMT 37.168396 -76.098671 32,000 204 442 0
2019-04-19 11:27:24 GMT 37.174801 -76.095245 32,000 204 442 0
2019-04-19 11:27:17 GMT 37.189419 -76.087364 32,000 204 442 64
2019-04-19 11:27:14 GMT 37.195450 -76.084122 31,975 204 442 64
2019-04-19 11:27:05 GMT 37.209366 -76.076637 31,975 204 442 -64
2019-04-19 11:27:02 GMT 37.223450 -76.069038 31,975 204 442 -64
2019-04-19 11:26:58 GMT 37.223450 -76.069038 32,000 204 442 -64
2019-04-19 11:26:53 GMT 37.233597 -76.063545 32,000 204 442 -64
2019-04-19 11:26:44 GMT 37.248634 -76.055367 32,000 204 441 0
2019-04-19 11:26:41 GMT 37.254639 -76.052094 32,000 204 441 64
2019-04-19 11:26:37 GMT 37.263252 -76.047424 31,975 204 442 0
2019-04-19 11:26:31 GMT 37.273399 -76.041870 32,000 204 441 0
2019-04-19 11:26:25 GMT 37.286156 -76.034943 32,000 204 442 0
2019-04-19 11:26:22 GMT 37.297234 -76.028976 32,000 204 441 0
2019-04-19 11:26:16 GMT 37.301697 -76.026505 32,000 204 441 0
2019-04-19 11:26:11 GMT 37.317299 -76.018044 32,000 204 441 0
2019-04-19 11:26:08 GMT 37.317299 -76.018044 32,000 204 441 0
2019-04-19 11:26:02 GMT 37.330425 -76.010880 31,975 204 441 0
2019-04-19 11:25:54 GMT 37.344086 -76.003418 31,975 204 441 0
2019-04-19 11:25:49 GMT 37.351776 -75.999268 31,975 204 441 0
2019-04-19 11:25:43 GMT 37.364178 -75.992554 31,975 204 441 0
2019-04-19 11:25:38 GMT 37.372421 -75.988052 31,975 204 441 0
2019-04-19 11:25:32 GMT 37.384239 -75.981621 31,975 204 441 0
2019-04-19 11:25:28 GMT 37.392105 -75.977295 31,975 204 441 0
2019-04-19 11:25:22 GMT 37.403137 -75.971275 31,975 204 441 0
2019-04-19 11:25:18 GMT 37.410828 -75.967125 31,975 204 441 0
2019-04-19 11:25:12 GMT 37.424320 -75.959770 31,975 204 441 0
2019-04-19 11:25:08 GMT 37.432049 -75.955528 31,975 204 441 0
2019-04-19 11:25:05 GMT 37.436890 -75.952904 32,000 204 441 0
2019-04-19 11:25:02 GMT 37.440475 -75.950935 31,975 204 441 0
2019-04-19 11:24:56 GMT 37.452667 -75.944336 32,000 204 441 0
2019-04-19 11:24:51 GMT 37.460541 -75.940010 32,000 204 441 64
2019-04-19 11:24:46 GMT 37.477615 -75.930717 31,975 204 442 64
2019-04-19 11:24:38 GMT 37.484745 -75.926811 31,975 204 442 0
2019-04-19 11:24:34 GMT 37.492264 -75.922714 32,000 204 442 -64
2019-04-19 11:24:30 GMT 37.501831 -75.917496 32,000 204 442 -64
2019-04-19 11:24:26 GMT 37.507462 -75.914413 32,000 204 442 -64
2019-04-19 11:24:22 GMT 37.516495 -75.909500 31,975 204 442 64
2019-04-19 11:24:19 GMT 37.522110 -75.906471 31,975 204 442 64
2019-04-19 11:24:16 GMT 37.527390 -75.903587 31,975 204 442 64
2019-04-19 11:24:13 GMT 37.533207 -75.900360 31,975 204 442 0
2019-04-19 11:24:05 GMT 37.547871 -75.892365 31,975 204 442 0
2019-04-19 11:24:02 GMT 37.554436 -75.888779 31,975 204 442 0
2019-04-19 11:23:58 GMT 37.561569 -75.884850 31,975 204 442 0
2019-04-19 11:23:54 GMT 37.568161 -75.881287 31,975 204 442 0
2019-04-19 11:23:51 GMT 37.573059 -75.878593 32,000 204 442 0
2019-04-19 11:23:47 GMT 37.580738 -75.874390 32,000 204 442 0
2019-04-19 11:23:43 GMT 37.588467 -75.870148 32,000 204 442 0
2019-04-19 11:23:38 GMT 37.597870 -75.864983 31,975 204 444 64
2019-04-19 11:23:33 GMT 37.608948 -75.858925 31,975 204 444 0
2019-04-19 11:23:30 GMT 37.615185 -75.855522 31,975 204 443 64
2019-04-19 11:23:27 GMT 37.619328 -75.853249 31,975 204 444 64
2019-04-19 11:23:23 GMT 37.626846 -75.849083 31,975 204 444 0
2019-04-19 11:23:16 GMT 37.639664 -75.842072 31,975 204 445 0
2019-04-19 11:23:07 GMT 37.656292 -75.832954 31,975 204 445 0
2019-04-19 11:23:03 GMT 37.665134 -75.828117 31,975 204 445 0
2019-04-19 11:22:48 GMT 37.704300 -75.806656 31,975 204 446 0
2019-04-19 11:22:40 GMT 37.709976 -75.803505 31,975 204 447 0
2019-04-19 11:22:35 GMT 37.719086 -75.798538 31,975 204 447 0
2019-04-19 11:22:30 GMT 37.726631 -75.794380 31,975 204 447 0
2019-04-19 11:22:27 GMT 37.742180 -75.785843 31,975 204 447 0
2019-04-19 11:22:23 GMT 37.742180 -75.785843 32,000 204 447 0
2019-04-19 11:22:17 GMT 37.751312 -75.780830 31,975 204 447 0
2019-04-19 11:22:11 GMT 37.762711 -75.774559 31,975 204 447 0
2019-04-19 11:22:08 GMT 37.769505 -75.770851 31,975 204 447 0
2019-04-19 11:22:01 GMT 37.783939 -75.762917 32,000 204 447 0
2019-04-19 11:21:58 GMT 37.787754 -75.760826 31,975 204 447 0
2019-04-19 11:21:53 GMT 37.798553 -75.754883 32,000 204 448 0
2019-04-19 11:21:45 GMT 37.813385 -75.746696 32,000 204 447 0
2019-04-19 11:21:41 GMT 37.829929 -75.737595 31,975 204 447 -64
2019-04-19 11:21:37 GMT 37.834854 -75.734894 31,975 204 447 -64
2019-04-19 11:21:29 GMT 37.843945 -75.729836 32,000 204 448 64
2019-04-19 11:21:23 GMT 37.853439 -75.724579 31,975 204 448 64
2019-04-19 11:21:20 GMT 37.860626 -75.720520 31,975 203 448 64
2019-04-19 11:21:14 GMT 37.871933 -75.714615 31,975 201 449 0
2019-04-19 11:21:08 GMT 37.883286 -75.709358 31,975 199 450 0
2019-04-19 11:20:59 GMT 37.916428 -75.695160 31,975 199 450 0
2019-04-19 11:20:51 GMT 37.916428 -75.695160 31,975 199 450 0
2019-04-19 11:20:46 GMT 37.925720 -75.691185 31,975 199 450 -64
2019-04-19 11:20:41 GMT 37.936630 -75.686546 32,000 199 450 -64
2019-04-19 11:20:37 GMT 37.943710 -75.683472 32,000 199 450 -64
2019-04-19 11:20:27 GMT 37.963669 -75.674995 32,000 199 450 64
2019-04-19 11:20:20 GMT 37.977688 -75.668991 31,975 199 450 64
2019-04-19 11:20:17 GMT 37.983627 -75.666466 31,975 199 450 64
2019-04-19 11:20:10 GMT 37.998077 -75.660271 31,975 199 451 -64
2019-04-19 11:20:06 GMT 38.006973 -75.656471 31,975 199 451 -64
2019-04-19 11:20:00 GMT 38.017456 -75.651970 31,975 199 450 -64
2019-04-19 11:19:57 GMT 38.026150 -75.648270 31,975 199 451 0
2019-04-19 11:19:49 GMT 38.039604 -75.642479 31,975 199 450 0
2019-04-19 11:19:46 GMT 38.045151 -75.640106 31,975 199 450 -64
2019-04-19 11:19:39 GMT 38.059200 -75.634064 32,000 199 450 0
2019-04-19 11:19:35 GMT 38.066299 -75.631050 32,000 199 450 0
2019-04-19 11:19:29 GMT 38.078751 -75.625671 32,000 199 450 0
2019-04-19 11:19:24 GMT 38.100906 -75.616211 32,000 199 450 0
2019-04-19 11:19:19 GMT 38.100906 -75.616211 31,975 199 450 0
2019-04-19 11:19:13 GMT 38.109989 -75.612328 32,000 199 450 -64
2019-04-19 11:19:04 GMT 38.128143 -75.604507 32,000 199 450 0
2019-04-19 11:18:50 GMT 38.164902 -75.588684 31,975 199 451 0
2019-04-19 11:18:43 GMT 38.169857 -75.586533 31,975 199 451 0
2019-04-19 11:18:35 GMT 38.186989 -75.579071 31,975 199 450 0
2019-04-19 11:18:32 GMT 38.190765 -75.577461 31,975 199 450 0
2019-04-19 11:18:23 GMT 38.209076 -75.569519 31,975 199 450 0
2019-04-19 11:18:15 GMT 38.226059 -75.562157 31,975 200 450 0
2019-04-19 11:18:10 GMT 38.233913 -75.558708 31,975 200 450 0
2019-04-19 11:18:02 GMT 38.250484 -75.551483 31,975 200 450 0
2019-04-19 11:17:59 GMT 38.271198 -75.542412 32,000 200 450 0
2019-04-19 11:17:51 GMT 38.277100 -75.539833 31,975 199 450 -64
2019-04-19 11:17:48 GMT 38.290890 -75.533813 31,975 199 450 -64
2019-04-19 11:17:41 GMT 38.297409 -75.530945 32,000 199 450 -64
2019-04-19 11:17:38 GMT 38.297409 -75.530945 31,975 199 450 -64
2019-04-19 11:17:31 GMT 38.313190 -75.524139 31,975 199 450 64
2019-04-19 11:17:26 GMT 38.320080 -75.521156 31,975 199 451 0
2019-04-19 11:17:19 GMT 38.335327 -75.514702 31,975 199 450 0
2019-04-19 11:17:16 GMT 38.340271 -75.512657 31,975 199 450 0
2019-04-19 11:17:10 GMT 38.353180 -75.507339 31,975 199 451 0
2019-04-19 11:17:06 GMT 38.380554 -75.496002 31,975 199 451 0
2019-04-19 11:16:57 GMT 38.380554 -75.496002 31,975 199 450 -64
2019-04-19 11:16:54 GMT 38.383530 -75.494774 31,975 199 450 -64
2019-04-19 11:16:48 GMT 38.397400 -75.488991 32,000 199 450 0
2019-04-19 11:16:44 GMT 38.403946 -75.486298 32,000 199 450 -64
2019-04-19 11:16:36 GMT 38.425140 -75.477448 32,000 199 450 0
2019-04-19 11:16:26 GMT 38.442169 -75.470406 32,000 199 450 0
2019-04-19 11:16:22 GMT 38.447121 -75.468323 32,000 198 450 64
2019-04-19 11:16:18 GMT 38.455811 -75.464729 31,975 198 450 0
2019-04-19 11:16:14 GMT 38.472656 -75.457741 31,975 198 450 0
2019-04-19 11:16:11 GMT 38.472656 -75.457741 31,975 198 450 0
2019-04-19 11:16:07 GMT 38.476822 -75.456055 32,000 198 447 0
2019-04-19 11:16:03 GMT 38.484550 -75.452820 32,000 198 450 0
2019-04-19 11:16:00 GMT 38.490646 -75.450317 32,000 198 446 0
2019-04-19 11:15:54 GMT 38.503494 -75.445007 32,000 198 447 0
2019-04-19 11:15:51 GMT 38.510239 -75.442223 32,000 198 447 0
2019-04-19 11:15:47 GMT 38.518707 -75.438698 32,000 199 445 -64
2019-04-19 11:15:41 GMT 38.531296 -75.433502 32,000 199 445 0
2019-04-19 11:15:38 GMT 38.545074 -75.427834 32,000 199 445 0
2019-04-19 11:15:33 GMT 38.545074 -75.427834 32,000 199 445 0
2019-04-19 11:15:29 GMT 38.552933 -75.424561 32,000 199 445 0
2019-04-19 11:15:26 GMT 38.560776 -75.421326 31,975 199 445 -64
2019-04-19 11:15:22 GMT 38.566086 -75.419113 31,975 199 445 0
2019-04-19 11:15:17 GMT 38.577232 -75.414490 31,975 199 445 0
2019-04-19 11:15:11 GMT 38.587051 -75.410393 31,975 199 445 -128
2019-04-19 11:15:08 GMT 38.595482 -75.406921 31,975 199 444 64
2019-04-19 11:15:02 GMT 38.606827 -75.402153 31,975 199 445 -128
2019-04-19 11:14:56 GMT 38.616615 -75.398071 31,975 199 444 0
2019-04-19 11:14:50 GMT 38.639477 -75.388550 31,975 199 444 -64
2019-04-19 11:14:45 GMT 38.639477 -75.388550 31,975 199 444 -64
2019-04-19 11:14:40 GMT 38.651047 -75.383705 32,000 199 444 -64
2019-04-19 11:14:34 GMT 38.662537 -75.378929 32,000 199 443 0
2019-04-19 11:14:30 GMT 38.670383 -75.375671 32,000 199 443 0
2019-04-19 11:14:23 GMT 38.682678 -75.370567 31,975 199 443 0
2019-04-19 11:14:16 GMT 38.694580 -75.365555 31,975 199 443 0
2019-04-19 11:14:13 GMT 38.700623 -75.363045 31,975 199 443 0
2019-04-19 11:14:08 GMT 38.713943 -75.357552 31,975 199 443 0
2019-04-19 11:14:01 GMT 38.724480 -75.353149 31,975 199 443 0
2019-04-19 11:13:57 GMT 38.735001 -75.348755 31,975 198 443 0
2019-04-19 11:13:51 GMT 38.743427 -75.345276 31,975 199 443 0
2019-04-19 11:13:46 GMT 38.754131 -75.340820 31,975 198 443 0
2019-04-19 11:13:41 GMT 38.763721 -75.336853 31,975 198 443 0
2019-04-19 11:13:37 GMT 38.772491 -75.333191 31,975 198 443 0
2019-04-19 11:13:33 GMT 38.787140 -75.327103 31,975 199 444 0
2019-04-19 11:13:29 GMT 38.787140 -75.327103 31,975 199 445 -64
2019-04-19 11:13:26 GMT 38.803944 -75.320129 31,975 198 443 0
2019-04-19 11:13:22 GMT 38.803944 -75.320129 31,975 199 443 0
2019-04-19 11:13:19 GMT 38.806091 -75.319221 31,975 199 443 0
2019-04-19 11:13:15 GMT 38.826416 -75.310745 31,975 199 444 0
2019-04-19 11:13:09 GMT 38.826416 -75.310745 31,975 199 444 0
2019-04-19 11:13:05 GMT 38.834854 -75.307251 31,975 199 444 0
2019-04-19 11:13:02 GMT 38.839325 -75.305367 31,975 199 449 0
2019-04-19 11:12:57 GMT 38.851242 -75.300354 31,975 199 445 -64
2019-04-19 11:12:53 GMT 38.857498 -75.297729 31,975 199 445 0
2019-04-19 11:12:50 GMT 38.863770 -75.295097 31,975 199 445 0
2019-04-19 11:12:46 GMT 38.873772 -75.290894 31,975 199 445 0
2019-04-19 11:12:43 GMT 38.878052 -75.289131 31,975 199 445 0
2019-04-19 11:12:34 GMT 38.896454 -75.281364 31,975 199 445 64
2019-04-19 11:12:26 GMT 38.910919 -75.275276 31,975 199 447 -64
2019-04-19 11:12:20 GMT 38.921722 -75.270737 31,975 199 446 0
2019-04-19 11:12:13 GMT 38.938992 -75.263428 31,975 199 448 64
2019-04-19 11:12:09 GMT 38.944065 -75.261292 31,975 199 447 -64
2019-04-19 11:12:06 GMT 38.949554 -75.258972 31,975 199 448 0
2019-04-19 11:12:03 GMT 38.956264 -75.256165 31,975 199 447 0
2019-04-19 11:12:00 GMT 38.962360 -75.253601 31,975 199 447 0
2019-04-19 11:11:52 GMT 38.978668 -75.246735 31,975 199 448 64
2019-04-19 11:11:47 GMT 38.988327 -75.242676 31,975 199 448 0
2019-04-19 11:11:43 GMT 38.997181 -75.238953 31,975 199 448 0
2019-04-19 11:11:39 GMT 39.004490 -75.235901 31,975 199 448 0
2019-04-19 11:11:34 GMT 39.012962 -75.232361 31,975 199 448 0
2019-04-19 11:11:31 GMT 39.020050 -75.229362 31,975 199 448 0
2019-04-19 11:11:28 GMT 39.025394 -75.227112 32,000 199 449 0
2019-04-19 11:11:23 GMT 39.036026 -75.222610 32,000 199 449 0
2019-04-19 11:11:19 GMT 39.042160 -75.220047 31,975 199 449 0
2019-04-19 11:11:16 GMT 39.055000 -75.214661 32,000 199 449 0
2019-04-19 11:11:13 GMT 39.055000 -75.214661 31,975 199 449 0
2019-04-19 11:11:10 GMT 39.062077 -75.211670 31,975 199 449 64
2019-04-19 11:11:06 GMT 39.069386 -75.208618 31,975 199 449 0
2019-04-19 11:11:02 GMT 39.076694 -75.205566 31,975 199 449 0
2019-04-19 11:10:59 GMT 39.081848 -75.203384 31,975 199 449 0
2019-04-19 11:10:55 GMT 39.091507 -75.199265 31,975 199 449 0
2019-04-19 11:10:51 GMT 39.097641 -75.196701 32,000 199 449 0
2019-04-19 11:10:48 GMT 39.102997 -75.194427 32,000 199 449 -64
2019-04-19 11:10:43 GMT 39.113846 -75.189896 31,975 199 449 0
2019-04-19 11:10:40 GMT 39.118591 -75.187866 32,000 199 449 0
2019-04-19 11:10:36 GMT 39.136963 -75.180099 32,000 199 449 0
2019-04-19 11:10:32 GMT 39.136963 -75.180099 32,000 199 449 0
2019-04-19 11:10:28 GMT 39.142502 -75.177773 31,975 199 449 0
2019-04-19 11:10:23 GMT 39.154900 -75.172485 31,975 199 449 0
2019-04-19 11:10:20 GMT 39.158859 -75.170837 32,000 199 449 0
2019-04-19 11:10:16 GMT 39.168541 -75.166687 31,975 199 449 0
2019-04-19 11:10:12 GMT 39.175476 -75.163757 31,975 199 449 0
2019-04-19 11:10:08 GMT 39.182365 -75.160828 31,975 199 449 0
2019-04-19 11:10:05 GMT 39.188465 -75.158203 31,975 199 449 0
2019-04-19 11:09:59 GMT 39.200912 -75.152931 32,000 200 448 0
2019-04-19 11:09:56 GMT 39.206669 -75.150513 31,975 199 449 0
2019-04-19 11:09:52 GMT 39.221832 -75.144035 31,975 199 449 64
2019-04-19 11:09:49 GMT 39.221832 -75.144035 32,000 199 449 64
2019-04-19 11:09:44 GMT 39.229568 -75.140816 31,975 199 449 0
2019-04-19 11:09:41 GMT 39.236881 -75.137695 31,975 199 449 0
2019-04-19 11:09:38 GMT 39.242203 -75.135437 31,975 199 449 0
2019-04-19 11:09:32 GMT 39.253826 -75.130493 31,975 199 449 0
2019-04-19 11:09:29 GMT 39.259548 -75.128113 31,975 199 449 0
2019-04-19 11:09:26 GMT 39.267059 -75.124931 31,975 199 449 0
2019-04-19 11:09:23 GMT 39.273003 -75.122437 31,975 200 448 0
2019-04-19 11:09:19 GMT 39.280685 -75.119202 32,000 203 446 0
2019-04-19 11:09:16 GMT 39.285015 -75.117371 31,975 199 448 -64
2019-04-19 11:09:12 GMT 39.294891 -75.113167 32,000 201 447 0
2019-04-19 11:09:08 GMT 39.301712 -75.110001 32,000 203 446 0
2019-04-19 11:09:04 GMT 39.309780 -75.105957 32,000 203 446 0
2019-04-19 11:09:01 GMT 39.314758 -75.103317 32,000 203 446 0
2019-04-19 11:08:58 GMT 39.320297 -75.100388 31,975 203 446 0
2019-04-19 11:08:54 GMT 39.328308 -75.096130 31,975 203 445 0
2019-04-19 11:08:50 GMT 39.335358 -75.092392 31,975 203 447 0
2019-04-19 11:08:44 GMT 39.347214 -75.086060 31,975 203 446 0
2019-04-19 11:08:40 GMT 39.354843 -75.082031 31,975 203 445 0
2019-04-19 11:08:37 GMT 39.360382 -75.079102 31,975 203 445 0
2019-04-19 11:08:33 GMT 39.370113 -75.073914 31,975 203 446 0
2019-04-19 11:08:30 GMT 39.374084 -75.071793 31,975 203 446 0
2019-04-19 11:08:26 GMT 39.381134 -75.068031 31,975 203 445 0
2019-04-19 11:08:23 GMT 39.388596 -75.064026 31,975 203 445 0
2019-04-19 11:08:19 GMT 39.393902 -75.061218 31,975 203 445 0
2019-04-19 11:08:16 GMT 39.400604 -75.057617 31,975 203 445 0
2019-04-19 11:08:13 GMT 39.405350 -75.055130 32,000 203 445 0
2019-04-19 11:08:09 GMT 39.414139 -75.050415 32,000 203 445 0
2019-04-19 11:08:06 GMT 39.421921 -75.046295 31,975 203 445 0
2019-04-19 11:08:01 GMT 39.429382 -75.042351 31,975 203 445 0
2019-04-19 11:07:58 GMT 39.434494 -75.039612 32,000 203 445 0
2019-04-19 11:07:55 GMT 39.440033 -75.036621 31,975 203 445 0
2019-04-19 11:07:51 GMT 39.450302 -75.031128 31,975 203 446 0
2019-04-19 11:07:48 GMT 39.453159 -75.029602 31,975 203 445 0
2019-04-19 11:07:44 GMT 39.462658 -75.024536 32,000 203 445 -64
2019-04-19 11:07:41 GMT 39.467056 -75.022171 32,000 203 445 -64
2019-04-19 11:07:37 GMT 39.475040 -75.017944 32,000 203 445 0
2019-04-19 11:07:32 GMT 39.484177 -75.013039 32,000 203 444 64
2019-04-19 11:07:29 GMT 39.489517 -75.010193 32,000 203 444 0
2019-04-19 11:07:26 GMT 39.495941 -75.006706 31,975 203 444 0
2019-04-19 11:07:22 GMT 39.505646 -75.001572 31,975 203 444 0
2019-04-19 11:07:16 GMT 39.516495 -74.995781 31,975 203 444 0
2019-04-19 11:07:11 GMT 39.524479 -74.991516 31,975 203 444 0
2019-04-19 11:07:07 GMT 39.531879 -74.987549 31,975 203 444 0
2019-04-19 11:07:04 GMT 39.537792 -74.984375 31,975 203 444 0
2019-04-19 11:07:01 GMT 39.548965 -74.978394 32,000 203 444 0
2019-04-19 11:06:55 GMT 39.556370 -74.974426 31,975 203 443 0
2019-04-19 11:06:52 GMT 39.562088 -74.971359 31,975 203 444 0
2019-04-19 11:06:48 GMT 39.567402 -74.968567 31,975 203 444 64
2019-04-19 11:06:45 GMT 39.573498 -74.965271 31,975 203 444 64
2019-04-19 11:06:42 GMT 39.577827 -74.962952 31,975 203 444 64
2019-04-19 11:06:39 GMT 39.586578 -74.958282 31,975 203 444 0
2019-04-19 11:06:35 GMT 39.593628 -74.954460 31,975 203 444 -64
2019-04-19 11:06:31 GMT 39.608646 -74.946411 31,975 203 445 -64
2019-04-19 11:06:27 GMT 39.608646 -74.946411 32,000 203 445 -64
2019-04-19 11:06:24 GMT 39.617935 -74.941444 32,000 203 444 0
2019-04-19 11:06:18 GMT 39.624428 -74.937988 31,975 203 445 64
2019-04-19 11:06:15 GMT 39.630890 -74.934517 31,975 203 444 64
2019-04-19 11:06:12 GMT 39.637508 -74.930969 31,975 203 444 0
2019-04-19 11:06:08 GMT 39.644211 -74.927429 31,975 203 444 0
2019-04-19 11:06:05 GMT 39.657524 -74.920288 31,975 203 445 0
2019-04-19 11:06:01 GMT 39.657524 -74.920288 31,975 203 445 0
2019-04-19 11:05:58 GMT 39.662659 -74.917503 32,000 203 444 0
2019-04-19 11:05:54 GMT 39.673122 -74.911926 31,975 203 444 0
2019-04-19 11:05:48 GMT 39.682804 -74.906738 32,000 203 444 -64
2019-04-19 11:05:44 GMT 39.690624 -74.902527 32,000 203 444 0
2019-04-19 11:05:41 GMT 39.697281 -74.898987 32,000 203 444 0
2019-04-19 11:05:36 GMT 39.705101 -74.894836 32,000 203 445 -64
2019-04-19 11:05:32 GMT 39.713058 -74.890518 31,975 203 445 64
2019-04-19 11:05:29 GMT 39.718044 -74.887878 31,975 203 445 64
2019-04-19 11:05:24 GMT 39.726791 -74.883171 31,975 203 445 0
2019-04-19 11:05:21 GMT 39.733265 -74.879700 31,975 203 445 0
2019-04-19 11:05:18 GMT 39.739738 -74.876221 31,975 203 445 -64
2019-04-19 11:05:14 GMT 39.745602 -74.873047 31,975 203 445 0
2019-04-19 11:05:11 GMT 39.751694 -74.869736 31,975 203 445 0
2019-04-19 11:05:08 GMT 39.759335 -74.865662 31,975 203 445 0
2019-04-19 11:05:05 GMT 39.765427 -74.862335 31,975 203 445 0
2019-04-19 11:05:02 GMT 39.769997 -74.859863 31,975 203 445 0
2019-04-19 11:04:59 GMT 39.775303 -74.856995 31,975 203 446 0
2019-04-19 11:04:56 GMT 39.780258 -74.854332 31,975 203 445 0
2019-04-19 11:04:52 GMT 39.790924 -74.848602 31,975 203 446 0
2019-04-19 11:04:49 GMT 39.795692 -74.846069 31,975 203 446 0
2019-04-19 11:04:44 GMT 39.803650 -74.841736 31,975 203 445 0
2019-04-19 11:04:41 GMT 39.815105 -74.835571 31,975 203 445 0
2019-04-19 11:04:38 GMT 39.815105 -74.835571 32,000 203 445 0
2019-04-19 11:04:35 GMT 39.821960 -74.831879 32,000 203 445 0
2019-04-19 11:04:31 GMT 39.830887 -74.827087 32,000 203 445 0
2019-04-19 11:04:28 GMT 39.835075 -74.824829 32,000 203 445 0
2019-04-19 11:04:25 GMT 39.838852 -74.822746 32,000 203 445 0
2019-04-19 11:04:22 GMT 39.853882 -74.814636 31,975 203 445 0
2019-04-19 11:04:18 GMT 39.853882 -74.814636 31,975 203 445 0
2019-04-19 11:04:15 GMT 39.865894 -74.808105 32,000 203 445 0
2019-04-19 11:04:12 GMT 39.870850 -74.805428 31,975 203 445 -64
2019-04-19 11:04:09 GMT 39.875576 -74.802856 32,000 203 445 -64
2019-04-19 11:04:03 GMT 39.882233 -74.799255 32,000 203 445 0
2019-04-19 11:03:59 GMT 39.890442 -74.794800 31,975 203 445 0
2019-04-19 11:03:55 GMT 39.898224 -74.790627 32,000 203 445 0
2019-04-19 11:03:50 GMT 39.907928 -74.785370 32,000 203 445 0
2019-04-19 11:03:46 GMT 39.914200 -74.781967 32,000 203 445 0
2019-04-19 11:03:43 GMT 39.918545 -74.779602 32,000 203 445 64
2019-04-19 11:03:39 GMT 39.928459 -74.774261 31,975 203 445 0
2019-04-19 11:03:36 GMT 39.932053 -74.772278 31,975 203 445 0
2019-04-19 11:03:33 GMT 39.940052 -74.767952 31,975 203 445 0
2019-04-19 11:03:26 GMT 39.951084 -74.762024 31,975 203 445 0
2019-04-19 11:03:23 GMT 39.965561 -74.754158 31,975 203 445 0
2019-04-19 11:03:19 GMT 39.965561 -74.754158 31,975 203 445 0
2019-04-19 11:03:16 GMT 39.970310 -74.751602 31,975 203 445 0
2019-04-19 11:03:13 GMT 39.979622 -74.746544 31,975 203 445 0
2019-04-19 11:03:09 GMT 39.991425 -74.740112 31,975 203 445 0
2019-04-19 11:03:06 GMT 39.991425 -74.740112 31,975 203 445 0
2019-04-19 11:03:01 GMT 40.000168 -74.735413 31,975 203 445 0
2019-04-19 11:02:57 GMT 40.008530 -74.730812 31,975 203 445 -64
2019-04-19 11:02:54 GMT 40.012161 -74.728882 31,975 203 445 -64
2019-04-19 11:02:50 GMT 40.020905 -74.724060 32,000 203 445 0
2019-04-19 11:02:47 GMT 40.026031 -74.721268 32,000 203 445 -64
2019-04-19 11:02:44 GMT 40.031525 -74.718269 32,000 203 445 0
2019-04-19 11:02:41 GMT 40.038757 -74.714355 32,000 203 445 64
2019-04-19 11:02:36 GMT 40.049011 -74.708740 31,975 203 445 64
2019-04-19 11:02:33 GMT 40.053963 -74.706093 31,975 203 445 0
2019-04-19 11:02:28 GMT 40.068398 -74.698227 31,975 203 445 0
2019-04-19 11:02:22 GMT 40.072769 -74.695862 31,975 203 445 0
2019-04-19 11:02:19 GMT 40.080185 -74.691895 31,975 203 445 0
2019-04-19 11:02:15 GMT 40.086090 -74.688660 31,975 203 445 0
2019-04-19 11:02:12 GMT 40.093349 -74.684746 31,975 203 445 0
2019-04-19 11:02:08 GMT 40.099586 -74.681313 31,975 203 445 0
2019-04-19 11:02:05 GMT 40.107780 -74.676880 32,000 203 445 0
2019-04-19 11:02:02 GMT 40.123745 -74.668205 32,000 203 445 0
2019-04-19 11:01:56 GMT 40.123745 -74.668205 32,000 203 445 0
2019-04-19 11:01:53 GMT 40.128708 -74.665466 31,975 203 445 0
2019-04-19 11:01:50 GMT 40.133614 -74.662773 32,000 203 445 0
2019-04-19 11:01:46 GMT 40.143902 -74.657219 32,000 203 446 0
2019-04-19 11:01:43 GMT 40.147522 -74.655273 31,975 203 446 -64
2019-04-19 11:01:40 GMT 40.153839 -74.651855 31,975 203 446 0
2019-04-19 11:01:35 GMT 40.165054 -74.645752 31,975 203 446 0
2019-04-19 11:01:32 GMT 40.170959 -74.642517 31,975 203 446 0
2019-04-19 11:01:29 GMT 40.173615 -74.641052 31,975 203 446 0
2019-04-19 11:01:23 GMT 40.186779 -74.633873 32,000 203 446 0
2019-04-19 11:01:19 GMT 40.194180 -74.629814 32,000 203 446 64
2019-04-19 11:01:16 GMT 40.200836 -74.626129 31,975 203 446 64
2019-04-19 11:01:11 GMT 40.209774 -74.621262 31,975 203 446 0
2019-04-19 11:01:08 GMT 40.216476 -74.617577 31,975 203 446 0
2019-04-19 11:01:05 GMT 40.221039 -74.615112 31,975 203 446 0
2019-04-19 11:01:01 GMT 40.227905 -74.611328 31,975 203 446 0
2019-04-19 11:00:58 GMT 40.233994 -74.607971 31,975 203 446 0
2019-04-19 11:00:54 GMT 40.240448 -74.604431 31,975 203 447 -64
2019-04-19 11:00:51 GMT 40.247910 -74.600342 31,975 203 447 0
2019-04-19 11:00:48 GMT 40.253998 -74.596977 31,975 203 447 -64
2019-04-19 11:00:44 GMT 40.260132 -74.593628 31,975 203 447 64
2019-04-19 11:00:41 GMT 40.267548 -74.589600 31,975 203 447 -64
2019-04-19 11:00:38 GMT 40.272156 -74.587059 32,000 203 447 -64
2019-04-19 11:00:34 GMT 40.280548 -74.582458 32,000 203 446 -64
2019-04-19 11:00:31 GMT 40.286819 -74.579041 32,000 203 446 -64
2019-04-19 11:00:28 GMT 40.292545 -74.575882 32,000 203 447 0
2019-04-19 11:00:25 GMT 40.296936 -74.573486 32,000 203 447 0
2019-04-19 11:00:22 GMT 40.303436 -74.569885 32,000 203 448 64
2019-04-19 11:00:19 GMT 40.309525 -74.566589 32,000 203 447 0
2019-04-19 11:00:15 GMT 40.318130 -74.561890 32,000 203 448 64
2019-04-19 11:00:11 GMT 40.323257 -74.559021 31,975 203 448 64
2019-04-19 11:00:08 GMT 40.329784 -74.555473 31,975 203 448 64
2019-04-19 11:00:05 GMT 40.335480 -74.552307 31,975 203 448 0
2019-04-19 11:00:01 GMT 40.344086 -74.547546 31,975 203 448 0
2019-04-19 10:59:57 GMT 40.349991 -74.544312 31,975 203 448 0
2019-04-19 10:59:54 GMT 40.356674 -74.540649 31,975 203 448 0
2019-04-19 10:59:50 GMT 40.363358 -74.536926 31,975 203 448 0
2019-04-19 10:59:47 GMT 40.370239 -74.533119 31,975 203 447 0
2019-04-19 10:59:44 GMT 40.375763 -74.530090 31,975 203 447 0
2019-04-19 10:59:41 GMT 40.381508 -74.526939 31,975 203 447 0
2019-04-19 10:59:38 GMT 40.386116 -74.524445 31,975 203 447 0
2019-04-19 10:59:35 GMT 40.394543 -74.519829 31,975 203 447 0
2019-04-19 10:59:30 GMT 40.406754 -74.513123 31,975 203 447 0
2019-04-19 10:59:24 GMT 40.413815 -74.509277 31,975 203 447 0
2019-04-19 10:59:17 GMT 40.425659 -74.502808 31,975 203 447 0
2019-04-19 10:59:14 GMT 40.432156 -74.499229 31,975 203 448 0
2019-04-19 10:59:10 GMT 40.443054 -74.493225 31,975 203 447 0
2019-04-19 10:59:07 GMT 40.445709 -74.491760 31,975 203 447 0
2019-04-19 10:59:04 GMT 40.452217 -74.488243 31,975 203 447 -64
2019-04-19 10:59:00 GMT 40.459076 -74.484436 32,000 203 447 -64
2019-04-19 10:58:57 GMT 40.472443 -74.477112 32,000 203 447 0
2019-04-19 10:58:51 GMT 40.475307 -74.475571 31,975 203 447 0
2019-04-19 10:58:48 GMT 40.483521 -74.471069 31,975 203 447 0
2019-04-19 10:58:45 GMT 40.489243 -74.467957 31,975 203 447 0
2019-04-19 10:58:42 GMT 40.494953 -74.464836 31,975 203 446 0
2019-04-19 10:58:39 GMT 40.501656 -74.461151 31,975 203 446 0
2019-04-19 10:58:35 GMT 40.506779 -74.458344 32,000 203 446 0
2019-04-19 10:58:32 GMT 40.513641 -74.454590 32,000 203 446 0
2019-04-19 10:58:29 GMT 40.519348 -74.451477 31,975 203 445 0
2019-04-19 10:58:25 GMT 40.532089 -74.444458 31,975 203 445 64
2019-04-19 10:58:19 GMT 40.536476 -74.441986 31,975 203 445 0
2019-04-19 10:58:16 GMT 40.544678 -74.437500 31,975 203 445 0
2019-04-19 10:58:13 GMT 40.548676 -74.435310 32,000 203 445 0
2019-04-19 10:58:09 GMT 40.555893 -74.431335 32,000 203 445 -64
2019-04-19 10:58:06 GMT 40.563492 -74.427124 32,000 203 445 -64
2019-04-19 10:58:03 GMT 40.569206 -74.424011 32,000 203 445 0
2019-04-19 10:57:58 GMT 40.576813 -74.419861 32,000 203 445 64
2019-04-19 10:57:55 GMT 40.584381 -74.415642 31,975 203 443 0
2019-04-19 10:57:52 GMT 40.587219 -74.414085 31,975 203 445 0
2019-04-19 10:57:49 GMT 40.593887 -74.410400 31,975 203 445 -64
2019-04-19 10:57:46 GMT 40.600296 -74.406860 31,975 203 445 -64
2019-04-19 10:57:43 GMT 40.604874 -74.404297 31,975 203 444 -64
2019-04-19 10:57:40 GMT 40.612244 -74.400208 31,975 203 445 0
2019-04-19 10:57:37 GMT 40.619659 -74.396118 31,975 203 444 0
2019-04-19 10:57:34 GMT 40.622322 -74.394669 32,000 203 444 -64
2019-04-19 10:57:31 GMT 40.628929 -74.390984 32,000 203 444 0
2019-04-19 10:57:27 GMT 40.637238 -74.386353 32,000 203 444 0
2019-04-19 10:57:24 GMT 40.642731 -74.383301 32,000 203 443 0
2019-04-19 10:57:21 GMT 40.648956 -74.379822 32,000 203 443 -64
2019-04-19 10:57:18 GMT 40.659119 -74.374207 32,000 203 441 64
2019-04-19 10:57:15 GMT 40.659119 -74.374207 32,000 203 441 64
2019-04-19 10:57:12 GMT 40.665344 -74.370728 32,000 203 440 0
2019-04-19 10:57:08 GMT 40.672459 -74.366768 32,000 204 440 0
2019-04-19 10:57:05 GMT 40.679020 -74.363083 32,000 204 439 0
2019-04-19 10:57:02 GMT 40.682186 -74.361336 32,000 204 439 0
2019-04-19 10:56:59 GMT 40.689495 -74.357277 32,000 204 439 0
2019-04-19 10:56:56 GMT 40.700340 -74.351227 32,000 203 437 0
2019-04-19 10:56:50 GMT 40.712074 -74.344673 31,975 203 437 64
2019-04-19 10:56:47 GMT 40.712074 -74.344673 31,975 204 438 64
2019-04-19 10:56:43 GMT 40.720459 -74.339966 31,975 204 438 0
2019-04-19 10:56:40 GMT 40.725479 -74.337120 31,975 204 438 -64
2019-04-19 10:56:37 GMT 40.731079 -74.334045 31,975 203 437 0
2019-04-19 10:56:34 GMT 40.737213 -74.330559 31,975 203 437 0
2019-04-19 10:56:30 GMT 40.742424 -74.327690 31,975 203 438 64
2019-04-19 10:56:27 GMT 40.747128 -74.325066 31,975 203 438 64
2019-04-19 10:56:24 GMT 40.755341 -74.320557 31,975 203 438 64
2019-04-19 10:56:21 GMT 40.759789 -74.318077 31,975 203 438 0
2019-04-19 10:56:18 GMT 40.764492 -74.315453 31,975 203 438 0
2019-04-19 10:56:14 GMT 40.771957 -74.311340 31,975 203 438 0
2019-04-19 10:56:11 GMT 40.780365 -74.306656 31,975 203 438 0
2019-04-19 10:56:08 GMT 40.784088 -74.304535 31,975 203 438 0
2019-04-19 10:56:05 GMT 40.790279 -74.301102 31,975 204 439 0
2019-04-19 10:56:02 GMT 40.795166 -74.298401 31,975 204 439 0
2019-04-19 10:55:59 GMT 40.801666 -74.294739 31,975 204 439 0
2019-04-19 10:55:55 GMT 40.810455 -74.289856 31,975 203 438 0
2019-04-19 10:55:52 GMT 40.814209 -74.287743 31,975 203 438 0
2019-04-19 10:55:49 GMT 40.820026 -74.284492 31,975 203 438 0
2019-04-19 10:55:45 GMT 40.828407 -74.279816 31,975 203 438 0
2019-04-19 10:55:41 GMT 40.834030 -74.276733 31,975 203 438 0
2019-04-19 10:55:38 GMT 40.840576 -74.273071 31,975 203 438 -64
2019-04-19 10:55:32 GMT 40.852158 -74.266602 32,000 203 438 0
2019-04-19 10:55:29 GMT 40.858852 -74.262894 32,000 203 438 0
2019-04-19 10:55:25 GMT 40.863369 -74.260399 32,000 203 438 0
2019-04-19 10:55:21 GMT 40.872307 -74.255409 31,975 203 438 0
2019-04-19 10:55:18 GMT 40.877930 -74.252258 32,000 203 438 0
2019-04-19 10:55:14 GMT 40.885201 -74.248230 32,000 203 438 0
2019-04-19 10:55:11 GMT 40.891022 -74.244980 32,000 203 438 0
2019-04-19 10:55:08 GMT 40.896973 -74.241638 31,975 203 438 0
2019-04-19 10:55:03 GMT 40.912109 -74.233185 31,975 203 438 0
2019-04-19 10:55:00 GMT 40.912109 -74.233185 31,975 203 438 0
2019-04-19 10:54:57 GMT 40.922165 -74.227562 31,975 203 440 0
2019-04-19 10:54:54 GMT 40.926086 -74.225342 31,975 203 440 0
2019-04-19 10:54:48 GMT 40.932632 -74.221680 31,975 204 438 -64
2019-04-19 10:54:45 GMT 40.940094 -74.217468 31,975 204 438 64
2019-04-19 10:54:42 GMT 40.944763 -74.214844 31,975 204 438 64
2019-04-19 10:54:39 GMT 40.951073 -74.211273 31,975 204 438 0
2019-04-19 10:54:36 GMT 40.956665 -74.208130 31,975 204 438 64
2019-04-19 10:54:33 GMT 40.960785 -74.205811 31,975 204 438 64
2019-04-19 10:54:30 GMT 40.973831 -74.198425 31,975 204 439 0
2019-04-19 10:54:27 GMT 40.973831 -74.198425 31,975 204 439 0
2019-04-19 10:54:24 GMT 40.978134 -74.196045 31,975 204 439 0
2019-04-19 10:54:21 GMT 40.983753 -74.192856 31,975 204 439 0
2019-04-19 10:54:18 GMT 40.995903 -74.186058 31,975 204 439 0
2019-04-19 10:54:15 GMT 40.995903 -74.186058 31,975 204 440 0
2019-04-19 10:54:12 GMT 41.004868 -74.181030 31,975 204 440 0
2019-04-19 10:54:06 GMT 41.013126 -74.176376 31,975 203 439 0
2019-04-19 10:54:03 GMT 41.017036 -74.174194 31,975 203 439 0
2019-04-19 10:54:00 GMT 41.023407 -74.170654 31,975 203 440 0
2019-04-19 10:53:56 GMT 41.030365 -74.166748 31,975 203 440 0
2019-04-19 10:53:53 GMT 41.037689 -74.162720 31,975 203 440 0
2019-04-19 10:53:50 GMT 41.043293 -74.159523 31,975 203 440 0
2019-04-19 10:53:45 GMT 41.052322 -74.154533 31,975 203 440 0
2019-04-19 10:53:39 GMT 41.061493 -74.149414 32,000 204 440 0
2019-04-19 10:53:35 GMT 41.070850 -74.144173 31,975 203 440 0
2019-04-19 10:53:32 GMT 41.076298 -74.141113 31,975 203 440 64
2019-04-19 10:53:29 GMT 41.081745 -74.138054 31,975 203 440 64
2019-04-19 10:53:24 GMT 41.090961 -74.132935 31,975 203 440 0
2019-04-19 10:53:21 GMT 41.095825 -74.130249 31,975 203 440 0
2019-04-19 10:53:18 GMT 41.101639 -74.127014 31,975 203 440 0
2019-04-19 10:53:13 GMT 41.111206 -74.121704 31,975 203 440 0
2019-04-19 10:53:10 GMT 41.118008 -74.117889 31,975 203 440 0
2019-04-19 10:53:07 GMT 41.121735 -74.115784 31,975 203 440 0
2019-04-19 10:53:03 GMT 41.131138 -74.110588 31,975 203 440 0
2019-04-19 10:52:57 GMT 41.140686 -74.105164 32,000 203 440 -64
2019-04-19 10:52:53 GMT 41.149155 -74.100464 32,000 203 440 0
2019-04-19 10:52:50 GMT 41.155701 -74.096741 31,975 204 441 0
2019-04-19 10:52:47 GMT 41.160416 -74.094116 31,975 204 441 64
2019-04-19 10:52:43 GMT 41.167728 -74.089989 31,975 204 441 64
2019-04-19 10:52:40 GMT 41.180668 -74.082680 31,975 204 441 -64
2019-04-19 10:52:37 GMT 41.180668 -74.082680 31,975 204 441 -64
2019-04-19 10:52:34 GMT 41.185371 -74.080002 31,975 204 441 -64
2019-04-19 10:52:31 GMT 41.190994 -74.076843 31,975 204 441 0
2019-04-19 10:52:28 GMT 41.197540 -74.073120 31,975 204 441 0
2019-04-19 10:52:25 GMT 41.200359 -74.071510 31,975 204 441 0
2019-04-19 10:52:20 GMT 41.210678 -74.065674 31,975 204 441 -64
2019-04-19 10:52:17 GMT 41.217072 -74.062080 32,000 204 441 0
2019-04-19 10:52:11 GMT 41.228336 -74.055717 32,000 204 441 0
2019-04-19 10:52:08 GMT 41.234161 -74.052429 32,000 204 441 0
2019-04-19 10:52:04 GMT 41.240162 -74.049042 31,975 204 441 0
2019-04-19 10:52:01 GMT 41.247849 -74.044739 31,975 204 441 0
2019-04-19 10:51:58 GMT 41.253479 -74.041504 31,975 204 441 0
2019-04-19 10:51:54 GMT 41.261398 -74.037048 31,975 204 441 0
2019-04-19 10:51:51 GMT 41.265114 -74.034927 31,975 204 440 0
2019-04-19 10:51:48 GMT 41.271332 -74.031372 31,975 204 440 0
2019-04-19 10:51:45 GMT 41.277512 -74.027893 31,975 204 440 0
2019-04-19 10:51:42 GMT 41.280521 -74.026192 31,975 204 441 64
2019-04-19 10:51:39 GMT 41.287228 -74.022324 31,975 204 440 0
2019-04-19 10:51:36 GMT 41.293991 -74.018494 31,975 204 441 64
2019-04-19 10:51:32 GMT 41.308273 -74.010437 31,975 204 441 64
2019-04-19 10:51:29 GMT 41.308273 -74.010437 31,975 204 441 64
2019-04-19 10:51:26 GMT 41.314087 -74.007141 31,975 204 441 0
2019-04-19 10:51:23 GMT 41.316696 -74.005615 31,975 204 441 0
2019-04-19 10:51:19 GMT 41.325726 -74.000534 31,975 204 441 0
2019-04-19 10:51:16 GMT 41.332489 -73.996704 31,975 204 441 0
2019-04-19 10:51:13 GMT 41.338108 -73.993484 31,975 204 441 0
2019-04-19 10:51:09 GMT 41.343182 -73.990608 31,975 204 441 0
2019-04-19 10:51:06 GMT 41.351440 -73.985901 31,975 204 441 0
2019-04-19 10:51:03 GMT 41.361008 -73.980469 31,975 204 442 0
2019-04-19 10:51:00 GMT 41.361008 -73.980469 31,975 204 441 0
2019-04-19 10:50:57 GMT 41.367390 -73.976814 31,975 204 441 0
2019-04-19 10:50:54 GMT 41.373207 -73.973442 31,975 204 441 0
2019-04-19 10:50:46 GMT 41.388943 -73.964432 31,975 204 441 64
2019-04-19 10:50:43 GMT 41.393967 -73.961586 31,975 204 441 -64
2019-04-19 10:50:36 GMT 41.407284 -73.953957 31,975 204 440 0
2019-04-19 10:50:33 GMT 41.413105 -73.950638 31,975 204 441 0
2019-04-19 10:50:30 GMT 41.418365 -73.947571 31,975 204 441 0
2019-04-19 10:50:27 GMT 41.422276 -73.945335 31,975 204 441 0
2019-04-19 10:50:24 GMT 41.429211 -73.941376 31,975 204 441 0
2019-04-19 10:50:21 GMT 41.433910 -73.938690 32,000 204 441 -64
2019-04-19 10:50:17 GMT 41.442856 -73.933495 32,000 204 441 -64
2019-04-19 10:50:13 GMT 41.449226 -73.929810 32,000 204 440 0
2019-04-19 10:50:10 GMT 41.455399 -73.926254 32,000 204 440 0
2019-04-19 10:50:06 GMT 41.461937 -73.922531 32,000 204 440 0
2019-04-19 10:50:03 GMT 41.467197 -73.919533 32,000 204 439 0
2019-04-19 10:50:00 GMT 41.473717 -73.915756 32,000 204 439 0
2019-04-19 10:49:56 GMT 41.481216 -73.911461 32,000 204 439 0
2019-04-19 10:49:53 GMT 41.488129 -73.907524 32,000 204 440 0
2019-04-19 10:49:50 GMT 41.491871 -73.905350 32,000 204 440 0
2019-04-19 10:49:46 GMT 41.500298 -73.900620 32,000 203 439 0
2019-04-19 10:49:43 GMT 41.506859 -73.896919 32,000 203 440 0
2019-04-19 10:49:40 GMT 41.511154 -73.894539 32,000 203 439 0
2019-04-19 10:49:35 GMT 41.520733 -73.889252 32,000 203 440 64
2019-04-19 10:49:32 GMT 41.525665 -73.886635 32,000 203 440 64
2019-04-19 10:49:29 GMT 41.531113 -73.883698 32,000 203 440 64
2019-04-19 10:49:25 GMT 41.539585 -73.879097 31,975 203 440 0
2019-04-19 10:49:22 GMT 41.543915 -73.876801 31,975 203 440 0
2019-04-19 10:49:19 GMT 41.557880 -73.869263 31,975 203 440 0
2019-04-19 10:49:15 GMT 41.564678 -73.865616 31,975 203 440 0
2019-04-19 10:49:12 GMT 41.564678 -73.865616 31,975 203 439 0
2019-04-19 10:49:08 GMT 41.571075 -73.862144 31,975 203 439 0
2019-04-19 10:49:04 GMT 41.578598 -73.858017 31,975 203 439 0
2019-04-19 10:49:01 GMT 41.584091 -73.855080 31,975 203 439 0
2019-04-19 10:48:58 GMT 41.589909 -73.851822 31,975 203 440 0
2019-04-19 10:48:55 GMT 41.595123 -73.848885 31,975 200 441 0
2019-04-19 10:48:51 GMT 41.603027 -73.844543 31,975 202 440 0
2019-04-19 10:48:48 GMT 41.610252 -73.840775 31,975 200 440 0
2019-04-19 10:48:45 GMT 41.614883 -73.838615 31,975 198 442 0
2019-04-19 10:48:41 GMT 41.623009 -73.835091 31,975 197 442 0
2019-04-19 10:48:38 GMT 41.628128 -73.833046 31,975 196 443 0
2019-04-19 10:48:35 GMT 41.633484 -73.831123 31,975 194 444 0
2019-04-19 10:48:32 GMT 41.639282 -73.829247 31,975 193 444 0
2019-04-19 10:48:29 GMT 41.652012 -73.825829 32,000 189 446 0
2019-04-19 10:48:22 GMT 41.661648 -73.823975 31,975 187 448 0
2019-04-19 10:48:19 GMT 41.679054 -73.822121 32,000 181 452 0
2019-04-19 10:48:14 GMT 41.679054 -73.822121 31,975 182 452 0
2019-04-19 10:48:11 GMT 41.683273 -73.822006 31,975 182 452 0
2019-04-19 10:48:08 GMT 41.688927 -73.821861 31,975 181 452 0
2019-04-19 10:48:05 GMT 41.696045 -73.821754 32,000 181 452 -64
2019-04-19 10:48:00 GMT 41.705017 -73.821571 32,000 181 451 0
2019-04-19 10:47:57 GMT 41.714622 -73.821419 32,000 181 452 0
2019-04-19 10:47:54 GMT 41.718842 -73.821320 32,000 181 452 0
2019-04-19 10:47:51 GMT 41.725296 -73.821198 32,000 181 452 0
2019-04-19 10:47:47 GMT 41.734501 -73.821037 32,000 181 452 0
2019-04-19 10:47:43 GMT 41.740768 -73.820946 32,000 181 451 0
2019-04-19 10:47:40 GMT 41.756428 -73.820648 32,000 181 451 0
2019-04-19 10:47:36 GMT 41.761826 -73.820587 32,000 181 451 0
2019-04-19 10:47:33 GMT 41.761826 -73.820587 31,975 181 451 0
2019-04-19 10:47:29 GMT 41.769974 -73.820457 31,975 181 451 0
2019-04-19 10:47:26 GMT 41.776611 -73.820320 31,975 181 451 0
2019-04-19 10:47:23 GMT 41.782883 -73.820259 31,975 181 451 0
2019-04-19 10:47:18 GMT 41.792496 -73.820076 31,975 181 451 0
2019-04-19 10:47:14 GMT 41.801880 -73.819946 31,975 181 451 0
2019-04-19 10:47:11 GMT 41.814789 -73.819695 31,975 181 451 0
2019-04-19 10:47:08 GMT 41.814789 -73.819695 31,975 181 451 64
2019-04-19 10:47:03 GMT 41.826859 -73.819504 31,975 181 451 0
2019-04-19 10:47:00 GMT 41.831451 -73.819450 31,975 181 451 0
2019-04-19 10:46:57 GMT 41.837521 -73.819374 31,975 181 451 0
2019-04-19 10:46:54 GMT 41.843765 -73.819260 31,975 181 451 0
2019-04-19 10:46:50 GMT 41.853973 -73.819077 31,975 181 451 0
2019-04-19 10:46:47 GMT 41.858982 -73.818993 31,975 181 451 0
2019-04-19 10:46:44 GMT 41.871082 -73.818733 31,975 181 451 0
2019-04-19 10:46:41 GMT 41.871082 -73.818733 31,975 181 452 0
2019-04-19 10:46:38 GMT 41.877136 -73.818634 31,975 181 451 0
2019-04-19 10:46:35 GMT 41.892197 -73.818390 31,975 181 451 0
2019-04-19 10:46:31 GMT 41.892197 -73.818390 31,975 181 451 0
2019-04-19 10:46:28 GMT 41.897202 -73.818291 31,975 181 451 64
2019-04-19 10:46:24 GMT 41.914703 -73.817970 31,975 181 451 0
2019-04-19 10:46:20 GMT 41.914703 -73.817970 31,975 181 451 0
2019-04-19 10:46:17 GMT 41.920757 -73.817841 31,975 181 451 0
2019-04-19 10:46:13 GMT 41.929550 -73.817703 31,975 181 451 0
2019-04-19 10:46:10 GMT 41.935593 -73.817574 31,975 181 451 -64
2019-04-19 10:46:07 GMT 41.941635 -73.817513 32,000 181 451 0
2019-04-19 10:46:02 GMT 41.960560 -73.817139 32,000 181 450 0
2019-04-19 10:45:58 GMT 41.960560 -73.817139 32,000 181 450 0
2019-04-19 10:45:54 GMT 41.967636 -73.816948 31,975 181 450 0
2019-04-19 10:45:51 GMT 41.975548 -73.816818 31,975 181 450 64
2019-04-19 10:45:47 GMT 41.982018 -73.816689 31,975 181 450 64
2019-04-19 10:45:44 GMT 41.995972 -73.816452 31,975 181 450 0
2019-04-19 10:45:41 GMT 41.995972 -73.816452 31,975 181 450 0
2019-04-19 10:45:38 GMT 42.002243 -73.816330 32,000 181 450 0
2019-04-19 10:45:34 GMT 42.011169 -73.816139 32,000 181 450 0
2019-04-19 10:45:30 GMT 42.020515 -73.815987 32,000 181 449 0
2019-04-19 10:45:26 GMT 42.033417 -73.815765 32,000 181 449 0
2019-04-19 10:45:20 GMT 42.039413 -73.815643 31,975 181 449 0
2019-04-19 10:45:17 GMT 42.047333 -73.815544 31,975 181 449 0
2019-04-19 10:45:14 GMT 42.050823 -73.815475 31,975 181 449 0
2019-04-19 10:45:11 GMT 42.057266 -73.815331 31,975 181 448 -64
2019-04-19 10:45:08 GMT 42.064957 -73.815201 31,975 181 448 -64
2019-04-19 10:45:01 GMT 42.079220 -73.814964 32,000 181 448 -64
2019-04-19 10:44:58 GMT 42.084229 -73.814888 31,975 181 448 0
2019-04-19 10:44:55 GMT 42.092907 -73.814774 31,975 181 448 64
2019-04-19 10:44:52 GMT 42.103867 -73.814575 31,975 181 448 64
2019-04-19 10:44:49 GMT 42.103867 -73.814575 31,975 181 447 0
2019-04-19 10:44:46 GMT 42.111511 -73.814514 31,975 181 448 64
2019-04-19 10:44:43 GMT 42.115856 -73.814392 31,975 181 448 64
2019-04-19 10:44:40 GMT 42.122498 -73.814331 31,975 181 448 0
2019-04-19 10:44:34 GMT 42.136597 -73.814079 31,975 181 448 0
2019-04-19 10:44:30 GMT 42.145111 -73.813896 31,975 181 448 0
2019-04-19 10:44:26 GMT 42.150909 -73.813751 31,975 181 448 -64
2019-04-19 10:44:22 GMT 42.159382 -73.813629 31,975 181 448 -64
2019-04-19 10:44:18 GMT 42.167904 -73.813431 31,975 181 448 -64
2019-04-19 10:44:15 GMT 42.173489 -73.813370 32,000 181 447 0
2019-04-19 10:44:12 GMT 42.180752 -73.813179 32,000 181 447 -64
2019-04-19 10:44:08 GMT 42.187775 -73.813080 31,975 181 447 64
2019-04-19 10:44:05 GMT 42.194183 -73.812958 32,000 181 447 0
2019-04-19 10:44:02 GMT 42.203522 -73.812767 32,000 181 447 0
2019-04-19 10:43:59 GMT 42.208649 -73.812706 32,000 181 447 64
2019-04-19 10:43:55 GMT 42.221695 -73.812454 32,000 181 447 0
2019-04-19 10:43:52 GMT 42.221695 -73.812454 32,000 181 447 0
2019-04-19 10:43:49 GMT 42.228104 -73.812332 32,000 181 447 64
2019-04-19 10:43:45 GMT 42.236984 -73.812210 31,975 181 447 64
2019-04-19 10:43:42 GMT 42.244217 -73.812080 31,975 181 447 0
2019-04-19 10:43:39 GMT 42.247318 -73.812027 31,975 181 447 64
2019-04-19 10:43:35 GMT 42.257034 -73.811836 31,975 181 447 64
2019-04-19 10:43:32 GMT 42.262402 -73.811775 31,975 181 444 0
2019-04-19 10:43:29 GMT 42.269665 -73.811646 31,975 181 447 0
2019-04-19 10:43:25 GMT 42.278778 -73.811455 31,975 181 447 0
2019-04-19 10:43:22 GMT 42.283493 -73.811394 31,975 181 447 -64
2019-04-19 10:43:19 GMT 42.291183 -73.811272 31,975 181 447 -64
2019-04-19 10:43:16 GMT 42.295715 -73.811211 31,975 181 447 -64
2019-04-19 10:43:12 GMT 42.304001 -73.811020 32,000 181 444 -64
2019-04-19 10:43:08 GMT 42.312881 -73.810898 32,000 181 447 -64
2019-04-19 10:43:05 GMT 42.319702 -73.810776 32,000 181 446 -64
2019-04-19 10:43:02 GMT 42.327110 -73.810623 32,000 181 446 -64
2019-04-19 10:42:59 GMT 42.333488 -73.810562 32,000 181 445 -64
2019-04-19 10:42:56 GMT 42.336594 -73.810455 32,000 181 443 64
2019-04-19 10:42:53 GMT 42.343826 -73.810333 32,000 181 445 -64
2019-04-19 10:42:50 GMT 42.351013 -73.810211 32,000 181 444 -64
2019-04-19 10:42:46 GMT 42.360023 -73.810051 32,000 181 444 0
2019-04-19 10:42:42 GMT 42.366211 -73.809959 32,000 181 444 0
2019-04-19 10:42:39 GMT 42.371941 -73.809860 32,000 181 443 64
2019-04-19 10:42:36 GMT 42.377884 -73.809776 32,000 181 443 64
2019-04-19 10:42:32 GMT 42.388325 -73.809601 32,000 181 443 64
2019-04-19 10:42:29 GMT 42.391388 -73.809525 31,975 181 443 64
2019-04-19 10:42:26 GMT 42.400429 -73.809410 31,975 181 443 64
2019-04-19 10:42:22 GMT 42.413315 -73.809212 31,975 181 443 0
2019-04-19 10:42:19 GMT 42.413315 -73.809212 31,975 181 443 64
2019-04-19 10:42:16 GMT 42.420914 -73.809090 31,975 181 443 0
2019-04-19 10:42:12 GMT 42.427895 -73.808960 31,975 181 444 0
2019-04-19 10:42:09 GMT 42.435066 -73.808838 31,975 181 444 0
2019-04-19 10:42:06 GMT 42.441193 -73.808777 31,975 181 444 0
2019-04-19 10:42:02 GMT 42.447353 -73.808640 31,975 181 444 64
2019-04-19 10:41:58 GMT 42.457039 -73.808517 31,975 181 445 0
2019-04-19 10:41:53 GMT 42.466301 -73.808388 31,975 181 445 0
2019-04-19 10:41:49 GMT 42.474518 -73.808273 31,975 181 445 64
2019-04-19 10:41:46 GMT 42.488319 -73.808006 31,975 181 446 64
2019-04-19 10:41:43 GMT 42.488319 -73.808006 31,975 181 446 0
2019-04-19 10:41:39 GMT 42.504009 -73.807747 31,975 181 448 -64
2019-04-19 10:41:36 GMT 42.509594 -73.807686 31,975 181 448 -64
2019-04-19 10:41:33 GMT 42.509594 -73.807686 31,975 181 448 -64
2019-04-19 10:41:30 GMT 42.516220 -73.807587 31,975 181 448 -64
2019-04-19 10:41:27 GMT 42.521374 -73.807495 31,975 181 448 0
2019-04-19 10:41:24 GMT 42.527798 -73.807365 31,975 181 448 0
2019-04-19 10:41:21 GMT 42.534851 -73.807213 31,975 181 448 0
2019-04-19 10:41:18 GMT 42.539612 -73.807152 31,975 181 448 0
2019-04-19 10:41:13 GMT 42.549774 -73.806961 32,000 181 448 0
2019-04-19 10:41:10 GMT 42.564899 -73.806664 32,000 181 448 0
2019-04-19 10:41:07 GMT 42.564899 -73.806664 32,000 181 448 0
2019-04-19 10:41:04 GMT 42.570465 -73.806526 32,000 181 447 64
2019-04-19 10:41:01 GMT 42.576260 -73.806412 32,000 181 448 0
2019-04-19 10:40:57 GMT 42.582504 -73.806274 32,000 181 448 0
2019-04-19 10:40:50 GMT 42.597160 -73.805962 32,000 182 448 0
2019-04-19 10:40:47 GMT 42.604424 -73.805771 32,000 182 447 0
2019-04-19 10:40:44 GMT 42.614777 -73.805527 32,000 182 447 0
2019-04-19 10:40:38 GMT 42.620949 -73.805389 32,000 182 447 0
2019-04-19 10:40:35 GMT 42.627182 -73.805214 31,975 182 447 0
2019-04-19 10:40:31 GMT 42.635651 -73.804970 31,975 182 447 0
2019-04-19 10:40:28 GMT 42.642689 -73.804810 32,000 182 447 0
2019-04-19 10:40:25 GMT 42.650322 -73.804619 31,975 182 447 0
2019-04-19 10:40:21 GMT 42.656525 -73.804405 31,975 182 447 0
2019-04-19 10:40:18 GMT 42.663757 -73.804214 31,975 182 447 0
2019-04-19 10:40:15 GMT 42.669548 -73.804047 31,975 182 447 -64
2019-04-19 10:40:12 GMT 42.676998 -73.803856 31,975 182 447 -64
2019-04-19 10:40:08 GMT 42.685471 -73.803658 32,000 181 447 0
2019-04-19 10:40:05 GMT 42.690636 -73.803535 32,000 181 447 -64
2019-04-19 10:40:01 GMT 42.700554 -73.803276 31,975 179 450 0
2019-04-19 10:39:58 GMT 42.704697 -73.803215 32,000 181 447 0
2019-04-19 10:39:55 GMT 42.712967 -73.803093 32,000 181 447 0
2019-04-19 10:39:52 GMT 42.717316 -73.803032 31,975 179 448 0
2019-04-19 10:39:48 GMT 42.725971 -73.802956 31,975 179 449 0
2019-04-19 10:39:44 GMT 42.735699 -73.802956 31,975 179 448 64
2019-04-19 10:39:39 GMT 42.746063 -73.803093 31,975 179 449 0
2019-04-19 10:39:36 GMT 42.750221 -73.803146 31,975 179 449 0
2019-04-19 10:39:33 GMT 42.758324 -73.803215 31,975 179 449 0
2019-04-19 10:39:29 GMT 42.766422 -73.803345 31,975 179 450 0
2019-04-19 10:39:25 GMT 42.773071 -73.803406 31,975 179 451 0
2019-04-19 10:39:21 GMT 42.795090 -73.803719 31,975 179 450 0
2019-04-19 10:39:15 GMT 42.795090 -73.803719 31,975 179 450 0
2019-04-19 10:39:12 GMT 42.800079 -73.803787 32,000 179 451 0
2019-04-19 10:39:06 GMT 42.812603 -73.803993 31,975 179 451 0
2019-04-19 10:39:03 GMT 42.820908 -73.804108 31,975 179 451 0
2019-04-19 10:38:52 GMT 42.842422 -73.804367 32,000 179 451 0
2019-04-19 10:38:49 GMT 42.856567 -73.804619 32,000 179 451 0
2019-04-19 10:38:43 GMT 42.860962 -73.804680 32,000 179 451 0
2019-04-19 10:38:40 GMT 42.866371 -73.804710 32,000 179 451 0
2019-04-19 10:38:35 GMT 42.877869 -73.804909 32,000 179 451 0
2019-04-19 10:38:30 GMT 42.887646 -73.805038 31,975 179 451 0
2019-04-19 10:38:26 GMT 42.894955 -73.805168 31,975 179 451 0
2019-04-19 10:38:20 GMT 42.908936 -73.805389 31,975 179 451 0
2019-04-19 10:38:17 GMT 42.915390 -73.805450 31,975 179 451 64
2019-04-19 10:38:10 GMT 42.931030 -73.805695 31,975 179 451 0
2019-04-19 10:38:07 GMT 42.935410 -73.805763 31,975 179 451 -64
2019-04-19 10:38:02 GMT 42.947514 -73.805954 31,975 179 451 -64
2019-04-19 10:37:59 GMT 42.953564 -73.806023 32,000 179 451 -64
2019-04-19 10:37:56 GMT 42.957287 -73.806084 32,000 179 450 0
2019-04-19 10:37:50 GMT 42.977909 -73.806412 32,000 179 450 0
2019-04-19 10:37:43 GMT 42.986664 -73.806534 32,000 179 450 0
2019-04-19 10:37:39 GMT 43.002213 -73.806740 32,000 179 445 64
2019-04-19 10:37:35 GMT 43.002213 -73.806740 32,000 179 449 0
2019-04-19 10:37:29 GMT 43.015961 -73.806915 32,000 179 449 0
2019-04-19 10:37:26 GMT 43.029816 -73.807137 31,975 179 448 0
2019-04-19 10:37:22 GMT 43.029816 -73.807137 32,000 179 448 0
2019-04-19 10:37:18 GMT 43.037292 -73.807175 32,000 179 448 0
2019-04-19 10:37:15 GMT 43.045807 -73.807304 32,000 179 448 0
2019-04-19 10:37:12 GMT 43.050346 -73.807327 32,000 179 448 0
2019-04-19 10:37:08 GMT 43.059860 -73.807495 32,000 179 447 0
2019-04-19 10:37:05 GMT 43.065662 -73.807526 32,000 179 447 0
2019-04-19 10:36:59 GMT 43.077625 -73.807724 32,000 179 447 0
2019-04-19 10:36:56 GMT 43.087772 -73.807854 32,000 179 446 -64
2019-04-19 10:36:53 GMT 43.087772 -73.807854 32,000 179 444 0
2019-04-19 10:36:45 GMT 43.107140 -73.808113 32,000 179 445 64
2019-04-19 10:36:42 GMT 43.112503 -73.808128 32,000 179 445 64
2019-04-19 10:36:38 GMT 43.120316 -73.808243 32,000 179 445 64
2019-04-19 10:36:35 GMT 43.134064 -73.808449 31,975 179 445 0
2019-04-19 10:36:31 GMT 43.134064 -73.808449 31,975 179 445 0
2019-04-19 10:36:27 GMT 43.142120 -73.808578 31,975 179 444 0
2019-04-19 10:36:24 GMT 43.149269 -73.808701 32,000 179 444 0
2019-04-19 10:36:20 GMT 43.157322 -73.808769 31,975 179 444 64
2019-04-19 10:36:16 GMT 43.164261 -73.808899 31,975 179 444 64
2019-04-19 10:36:13 GMT 43.171894 -73.808968 31,975 179 444 64
2019-04-19 10:36:07 GMT 43.185020 -73.809158 31,975 179 444 0
2019-04-19 10:36:04 GMT 43.195076 -73.809357 31,975 179 444 0
2019-04-19 10:35:57 GMT 43.202866 -73.809471 31,975 179 443 64
2019-04-19 10:35:54 GMT 43.211060 -73.809601 31,975 179 444 0
2019-04-19 10:35:51 GMT 43.216209 -73.809685 31,975 179 444 0
2019-04-19 10:35:48 GMT 43.222122 -73.809746 31,975 179 444 0
2019-04-19 10:35:45 GMT 43.227661 -73.809814 31,975 179 444 0
2019-04-19 10:35:42 GMT 43.236282 -73.809982 31,975 179 444 0
2019-04-19 10:35:38 GMT 43.244705 -73.810051 31,975 179 444 0
2019-04-19 10:35:35 GMT 43.248413 -73.810112 31,975 179 444 0
2019-04-19 10:35:32 GMT 43.257645 -73.810272 31,975 179 444 64
2019-04-19 10:35:28 GMT 43.264618 -73.810371 31,975 179 444 0
2019-04-19 10:35:24 GMT 43.270538 -73.810471 31,975 179 444 0
2019-04-19 10:35:21 GMT 43.279148 -73.810600 31,975 179 444 -64
2019-04-19 10:35:15 GMT 43.300705 -73.810860 31,975 179 443 0
2019-04-19 10:35:10 GMT 43.300705 -73.810860 31,975 179 443 0
2019-04-19 10:35:06 GMT 43.318085 -73.811073 31,975 179 443 0
2019-04-19 10:35:02 GMT 43.321976 -73.811134 31,975 179 443 0
2019-04-19 10:34:53 GMT 43.333851 -73.811256 31,975 179 443 0
2019-04-19 10:34:49 GMT 43.344727 -73.811394 31,975 179 443 64
2019-04-19 10:34:46 GMT 43.351257 -73.811447 31,975 179 443 64
2019-04-19 10:34:43 GMT 43.365597 -73.811577 31,975 179 443 0
2019-04-19 10:34:38 GMT 43.365597 -73.811577 31,975 179 443 0
2019-04-19 10:34:35 GMT 43.372768 -73.811714 31,975 179 443 -64
2019-04-19 10:34:32 GMT 43.377048 -73.811714 31,975 179 443 -64
2019-04-19 10:34:28 GMT 43.386475 -73.811836 31,975 179 443 -64
2019-04-19 10:34:23 GMT 43.398743 -73.811966 31,975 179 442 0
2019-04-19 10:34:20 GMT 43.402653 -73.812035 32,000 179 443 0
2019-04-19 10:34:17 GMT 43.411636 -73.812172 31,975 179 443 64
2019-04-19 10:34:11 GMT 43.420437 -73.812302 31,975 179 442 0
2019-04-19 10:34:08 GMT 43.427811 -73.812347 32,000 179 442 0
2019-04-19 10:34:02 GMT 43.439476 -73.812492 31,975 179 442 0
2019-04-19 10:33:59 GMT 43.445160 -73.812538 31,975 179 442 0
2019-04-19 10:33:56 GMT 43.452137 -73.812630 31,975 179 442 0
2019-04-19 10:33:52 GMT 43.461353 -73.812759 31,975 179 442 64
2019-04-19 10:33:46 GMT 43.473412 -73.812889 31,975 179 442 0
2019-04-19 10:33:41 GMT 43.483429 -73.812988 31,975 179 442 0
2019-04-19 10:33:35 GMT 43.495285 -73.813179 31,975 179 442 0
2019-04-19 10:33:31 GMT 43.503441 -73.813278 31,975 179 442 0
2019-04-19 10:33:27 GMT 43.512863 -73.813370 31,975 179 442 0
2019-04-19 10:33:23 GMT 43.521641 -73.813545 31,975 179 442 0
2019-04-19 10:33:18 GMT 43.528393 -73.813606 31,975 179 442 0
2019-04-19 10:33:14 GMT 43.539238 -73.813736 31,975 179 442 0
2019-04-19 10:33:09 GMT 43.547379 -73.813881 32,000 179 442 0
2019-04-19 10:33:06 GMT 43.555984 -73.813942 31,975 179 442 0
2019-04-19 10:33:02 GMT 43.564362 -73.814072 31,975 179 442 0
2019-04-19 10:32:59 GMT 43.567200 -73.814140 31,975 179 442 0
2019-04-19 10:32:55 GMT 43.576630 -73.814262 32,000 179 442 0
2019-04-19 10:32:50 GMT 43.587433 -73.814453 32,000 179 442 0
2019-04-19 10:32:43 GMT 43.601151 -73.814651 31,975 179 442 0
2019-04-19 10:32:39 GMT 43.608490 -73.814842 31,975 179 442 0
2019-04-19 10:32:36 GMT 43.614605 -73.814919 31,975 179 443 -64
2019-04-19 10:32:33 GMT 43.622192 -73.815048 31,975 179 444 256
2019-04-19 10:32:29 GMT 43.630188 -73.815224 31,975 179 443 0
2019-04-19 10:32:21 GMT 43.651894 -73.815636 31,975 179 444 256
2019-04-19 10:32:18 GMT 43.651894 -73.815636 32,000 179 443 0
2019-04-19 10:32:11 GMT 43.667023 -73.815964 31,975 179 444 0
2019-04-19 10:32:07 GMT 43.674240 -73.816093 31,975 179 444 64
2019-04-19 10:32:03 GMT 43.683643 -73.816223 31,975 179 444 -64
2019-04-19 10:32:00 GMT 43.690857 -73.816353 31,975 179 444 -64
2019-04-19 10:31:57 GMT 43.694954 -73.816483 31,975 179 444 0
2019-04-19 10:31:50 GMT 43.715057 -73.816818 31,900 179 444 1408
2019-04-19 10:31:47 GMT 43.715057 -73.816818 31,875 179 444 1408
2019-04-19 10:31:43 GMT 43.726795 -73.817009 31,750 179 445 1408
2019-04-19 10:31:36 GMT 43.737877 -73.817207 31,525 179 445 1344
2019-04-19 10:31:32 GMT 43.746765 -73.817337 31,475 179 446 1280
2019-04-19 10:31:27 GMT 43.757675 -73.817459 31,350 179 446 1344
2019-04-19 10:31:22 GMT 43.767792 -73.817589 31,300 179 447 1344
2019-04-19 10:31:19 GMT 43.773148 -73.817650 31,250 179 447 1408
2019-04-19 10:31:16 GMT 43.780796 -73.817726 31,150 179 447 1344
2019-04-19 10:31:09 GMT 43.796532 -73.817986 30,850 179 448 1280
2019-04-19 10:31:06 GMT 43.801300 -73.818031 30,850 179 448 1280
2019-04-19 10:31:01 GMT 43.817852 -73.818253 30,550 179 449 1216
2019-04-19 10:30:55 GMT 43.822220 -73.818352 30,725 179 449 1280
2019-04-19 10:30:50 GMT 43.833435 -73.818542 30,625 179 449 1216
2019-04-19 10:30:45 GMT 43.843410 -73.818642 30,525 179 449 1344
2019-04-19 10:30:40 GMT 43.855225 -73.818863 29,500 179 453 1344
2019-04-19 10:30:35 GMT 43.863987 -73.818970 30,300 179 450 1152
2019-04-19 10:30:28 GMT 43.878525 -73.819183 30,175 179 450 1280
2019-04-19 10:30:23 GMT 43.890194 -73.819359 30,100 179 450 1280
2019-04-19 10:30:19 GMT 43.899551 -73.819496 29,950 179 451 1344
2019-04-19 10:30:13 GMT 43.910156 -73.819633 29,825 179 451 1408
2019-04-19 10:30:08 GMT 43.921005 -73.819824 29,700 179 452 1472
2019-04-19 10:30:03 GMT 43.931858 -73.819954 29,575 179 452 1408
2019-04-19 10:29:57 GMT 43.942753 -73.820084 29,450 179 452 1408
2019-04-19 10:29:52 GMT 43.953411 -73.820274 29,350 179 453 1216
2019-04-19 10:29:46 GMT 43.965317 -73.820396 29,250 179 452 1024
2019-04-19 10:29:42 GMT 43.975571 -73.820602 29,000 179 453 1792
2019-04-19 10:29:37 GMT 43.986053 -73.820717 29,000 179 453 1536
2019-04-19 10:29:30 GMT 44.000477 -73.820930 28,825 179 453 1344
2019-04-19 10:29:27 GMT 44.007832 -73.820999 28,750 179 453 1408
2019-04-19 10:29:22 GMT 44.016399 -73.821129 28,600 179 454 1280
2019-04-19 10:29:16 GMT 44.029633 -73.821289 28,525 179 453 1088
2019-04-19 10:29:12 GMT 44.038651 -73.821388 28,450 179 453 1216
2019-04-19 10:29:05 GMT 44.051605 -73.821548 28,325 179 453 1216
2019-04-19 10:29:02 GMT 44.059364 -73.821648 28,225 179 453 1216
2019-04-19 10:28:59 GMT 44.073395 -73.821800 28,175 179 453 1152
2019-04-19 10:28:56 GMT 44.073395 -73.821800 28,125 179 453 1024
2019-04-19 10:28:51 GMT 44.083431 -73.821915 28,050 179 452 960
2019-04-19 10:28:48 GMT 44.087811 -73.821976 28,000 179 452 960
2019-04-19 10:28:44 GMT 44.095535 -73.822105 27,950 179 451 1088
2019-04-19 10:28:38 GMT 44.108059 -73.822243 27,825 179 451 1024
2019-04-19 10:28:35 GMT 44.116997 -73.822372 27,750 179 450 832
2019-04-19 10:28:28 GMT 44.130123 -73.822563 27,650 179 448 1152
2019-04-19 10:28:24 GMT 44.137985 -73.822693 27,575 179 448 1408
2019-04-19 10:28:17 GMT 44.151863 -73.822891 27,025 179 447 1600
2019-04-19 10:28:13 GMT 44.160141 -73.822952 27,325 179 447 1536
2019-04-19 10:28:07 GMT 44.173370 -73.823158 27,175 179 447 1728
2019-04-19 10:28:04 GMT 44.181839 -73.823273 27,025 179 448 1664
2019-04-19 10:27:56 GMT 44.195297 -73.823433 26,850 179 448 1728
2019-04-19 10:27:53 GMT 44.202759 -73.823616 26,750 179 449 1792
2019-04-19 10:27:46 GMT 44.216663 -73.823769 26,550 179 450 1728
2019-04-19 10:27:43 GMT 44.236450 -73.824135 25,625 179 451 1600
2019-04-19 10:27:36 GMT 44.236450 -73.824135 26,225 179 451 1920
2019-04-19 10:27:33 GMT 44.246017 -73.824265 26,125 179 452 1856
2019-04-19 10:27:24 GMT 44.262314 -73.824532 25,875 179 452 1856
2019-04-19 10:27:21 GMT 44.270279 -73.824593 25,750 179 453 1984
2019-04-19 10:27:14 GMT 44.282867 -73.824791 25,600 179 453 1088
2019-04-19 10:27:11 GMT 44.290604 -73.824921 25,550 179 452 832
2019-04-19 10:27:05 GMT 44.303101 -73.825119 25,375 179 451 1600
2019-04-19 10:27:01 GMT 44.312485 -73.825249 25,300 179 451 1408
2019-04-19 10:26:53 GMT 44.326218 -73.825447 25,175 179 449 896
2019-04-19 10:26:50 GMT 44.332439 -73.825516 25,125 179 448 1280
2019-04-19 10:26:47 GMT 44.341377 -73.825645 25,025 179 447 832
2019-04-19 10:26:44 GMT 44.346546 -73.825714 24,900 179 447 1024
2019-04-19 10:26:40 GMT 44.353809 -73.825844 24,825 179 447 832
2019-04-19 10:26:32 GMT 44.370754 -73.826050 24,750 179 445 1216
2019-04-19 10:26:29 GMT 44.378128 -73.826096 24,675 179 445 1664
2019-04-19 10:26:22 GMT 44.390900 -73.826294 24,500 179 445 1664
2019-04-19 10:26:19 GMT 44.399734 -73.826424 24,400 179 445 1216
2019-04-19 10:26:11 GMT 44.413925 -73.826622 24,250 179 443 1280
2019-04-19 10:26:08 GMT 44.420891 -73.826721 24,200 179 443 1408
2019-04-19 10:26:01 GMT 44.433739 -73.826851 23,975 179 440 1280
2019-04-19 10:25:58 GMT 44.441700 -73.826988 23,950 179 440 1280
2019-04-19 10:25:51 GMT 44.455338 -73.827187 23,800 179 439 1472
2019-04-19 10:25:47 GMT 44.463501 -73.827339 23,750 179 439 1600
2019-04-19 10:25:39 GMT 44.480709 -73.827591 23,500 179 437 1024
2019-04-19 10:25:36 GMT 44.485153 -73.827667 23,475 179 436 1152
2019-04-19 10:25:28 GMT 44.502075 -73.827858 23,275 179 434 1408
2019-04-19 10:25:25 GMT 44.507309 -73.827927 23,225 179 434 1408
2019-04-19 10:25:18 GMT 44.523331 -73.828194 23,000 179 433 1792
2019-04-19 10:25:15 GMT 44.527542 -73.828255 22,925 179 433 1728
2019-04-19 10:25:05 GMT 44.550156 -73.828514 22,650 179 431 1344
2019-04-19 10:24:53 GMT 44.571030 -73.828842 22,450 179 428 1344
2019-04-19 10:24:43 GMT 44.593002 -73.829170 22,175 179 426 1280
2019-04-19 10:24:36 GMT 44.606960 -73.829399 22,025 179 424 1344
2019-04-19 10:24:31 GMT 44.614037 -73.829529 21,925 179 423 1472
2019-04-19 10:24:28 GMT 44.622459 -73.829666 21,825 179 422 1408
2019-04-19 10:24:22 GMT 44.634331 -73.829803 21,700 179 421 1344
2019-04-19 10:24:15 GMT 44.647385 -73.830025 21,550 179 418 1344
2019-04-19 10:24:11 GMT 44.654526 -73.830086 21,450 179 417 1280
2019-04-19 10:24:04 GMT 44.667618 -73.830284 21,325 179 415 1344
2019-04-19 10:24:00 GMT 44.675079 -73.830345 21,225 179 413 1536
2019-04-19 10:23:56 GMT 44.684647 -73.830482 21,100 179 412 1408
2019-04-19 10:23:53 GMT 44.688286 -73.830536 21,050 179 412 1408
2019-04-19 10:23:50 GMT 44.696091 -73.830612 20,950 179 410 1216
2019-04-19 10:23:43 GMT 44.707443 -73.830742 20,850 179 407 1216
2019-04-19 10:23:39 GMT 44.715008 -73.830872 20,750 179 406 1408
2019-04-19 10:23:32 GMT 44.726971 -73.831009 20,600 179 404 1344
2019-04-19 10:23:29 GMT 44.736141 -73.831139 20,500 179 402 1408
2019-04-19 10:23:22 GMT 44.745758 -73.831261 20,375 179 400 1536
2019-04-19 10:23:18 GMT 44.754272 -73.831398 20,250 179 399 1792
2019-04-19 10:23:12 GMT 44.765350 -73.831528 20,050 179 398 1856
2019-04-19 10:23:07 GMT 44.774002 -73.831589 19,900 179 397 1792
2019-04-19 10:23:02 GMT 44.784462 -73.831741 19,725 179 396 1792
2019-04-19 10:22:57 GMT 44.792889 -73.831810 19,600 179 395 1984
2019-04-19 10:22:51 GMT 44.803802 -73.831985 19,375 179 395 2368
2019-04-19 10:22:47 GMT 44.812393 -73.832077 19,175 179 395 2304
2019-04-19 10:22:40 GMT 44.823566 -73.832214 18,925 179 395 2560
2019-04-19 10:22:36 GMT 44.831406 -73.832314 18,750 179 396 2496
2019-04-19 10:22:30 GMT 44.842392 -73.832504 18,525 179 396 2176
2019-04-19 10:22:26 GMT 44.850266 -73.832634 18,375 179 396 2112
2019-04-19 10:22:20 GMT 44.861984 -73.832832 18,150 179 395 2240
2019-04-19 10:22:15 GMT 44.869656 -73.832947 17,975 179 395 2496
2019-04-19 10:22:09 GMT 44.880432 -73.833160 17,750 179 395 2368
2019-04-19 10:22:05 GMT 44.888462 -73.833282 17,575 179 394 2432
2019-04-19 10:21:58 GMT 44.899403 -73.833420 17,325 179 394 2432
2019-04-19 10:21:53 GMT 44.908356 -73.833549 17,125 179 394 2560
2019-04-19 10:21:48 GMT 44.918346 -73.833687 16,900 179 394 2496
2019-04-19 10:21:44 GMT 44.927444 -73.833878 16,675 179 393 2240
2019-04-19 10:21:37 GMT 44.937481 -73.834023 16,475 179 393 2304
2019-04-19 10:21:32 GMT 44.947083 -73.834145 16,250 179 393 2880
2019-04-19 10:21:28 GMT 44.956741 -73.834274 16,000 179 393 2368
2019-04-19 10:21:22 GMT 44.966171 -73.834404 15,825 179 392 2048
2019-04-19 10:21:12 GMT 44.985168 -73.834663 15,475 179 389 1856
2019-04-19 10:21:07 GMT 44.994133 -73.834755 15,325 179 387 1984
2019-04-19 10:21:01 GMT 45.004349 -73.834862 15,125 179 385 2112
2019-04-19 10:20:56 GMT 45.012680 -73.834991 14,950 179 383 1920
2019-04-19 10:20:51 GMT 45.023666 -73.835190 14,775 179 380 1792
2019-04-19 10:20:47 GMT 45.029480 -73.835251 14,675 179 377 2048
2019-04-19 10:20:40 GMT 45.041016 -73.835449 14,450 179 376 2048
2019-04-19 10:20:34 GMT 45.052505 -73.835648 14,275 179 375 2112
2019-04-19 10:20:30 GMT 45.060982 -73.835762 14,025 179 373 2368
2019-04-19 10:20:25 GMT 45.066662 -73.835831 13,900 179 372 2432
2019-04-19 10:20:18 GMT 45.078873 -73.836105 13,475 179 367 2560
2019-04-19 10:20:14 GMT 45.084824 -73.836166 13,525 179 368 2176
2019-04-19 10:20:07 GMT 45.098785 -73.836502 13,200 179 335 896
2019-04-19 10:20:04 GMT 45.101997 -73.836563 13,100 179 366 2240
2019-04-19 10:19:57 GMT 45.114471 -73.836838 12,850 179 362 2240
2019-04-19 10:19:53 GMT 45.120850 -73.836952 12,700 179 361 2624
2019-04-19 10:19:46 GMT 45.131882 -73.837151 12,400 179 360 2496
2019-04-19 10:19:36 GMT 45.149433 -73.837502 12,100 179 353 1088
2019-04-19 10:19:33 GMT 45.154358 -73.837540 12,050 179 350 896
2019-04-19 10:19:25 GMT 45.166889 -73.837708 11,925 179 342 896
2019-04-19 10:19:16 GMT 45.180771 -73.837936 11,775 179 329 960
2019-04-19 10:19:12 GMT 45.187500 -73.838066 11,725 179 325 960
2019-04-19 10:19:07 GMT 45.196217 -73.838242 11,650 179 317 896
2019-04-19 10:19:03 GMT 45.202377 -73.838326 11,575 179 312 1024
2019-04-19 10:18:55 GMT 45.211861 -73.838440 11,400 179 302 960
2019-04-19 10:18:52 GMT 45.217072 -73.838440 11,400 179 299 896
2019-04-19 10:18:42 GMT 45.231812 -73.838654 11,250 179 286 1088
2019-04-19 10:18:34 GMT 45.241745 -73.838776 11,100 179 277 1152
2019-04-19 10:18:30 GMT 45.245087 -73.838852 11,025 179 266 640
2019-04-19 10:18:23 GMT 45.254883 -73.839043 10,950 178 262 1088
2019-04-19 10:18:20 GMT 45.257675 -73.839111 10,900 178 260 1472
2019-04-19 10:18:14 GMT 45.270515 -73.839714 10,500 178 257 3456
2019-04-19 10:18:10 GMT 45.270515 -73.839714 10,425 177 256 3328
2019-04-19 10:18:02 GMT 45.279545 -73.840050 10,000 178 257 3456
2019-04-19 10:17:59 GMT 45.283688 -73.840179 9,800 179 257 3072
2019-04-19 10:17:52 GMT 45.291779 -73.840355 9,525 179 254 2368
2019-04-19 10:17:49 GMT 45.295395 -73.840355 9,375 179 252 2752
2019-04-19 10:17:42 GMT 45.304592 -73.840385 9,075 180 252 3584
2019-04-19 10:17:38 GMT 45.307198 -73.840385 8,800 181 253 3392
2019-04-19 10:17:33 GMT 45.313717 -73.840248 8,500 182 252 3200
2019-04-19 10:17:29 GMT 45.319675 -73.840050 8,225 181 252 3200
2019-04-19 10:17:22 GMT 45.326004 -73.839912 7,775 182 252 3456
2019-04-19 10:17:18 GMT 45.331684 -73.839783 7,650 182 252 3520
2019-04-19 10:17:13 GMT 45.338791 -73.839569 7,300 181 252 3520
2019-04-19 10:17:08 GMT 45.343697 -73.839447 7,025 181 252 3648
2019-04-19 10:17:00 GMT 45.353611 -73.839249 6,500 186 251 3840
2019-04-19 10:16:57 GMT 45.356277 -73.838913 6,350 187 249 3776
2019-04-19 10:16:51 GMT 45.361992 -73.837906 6,050 191 248 3648
2019-04-19 10:16:48 GMT 45.365845 -73.836823 5,825 193 247 3648
2019-04-19 10:16:41 GMT 45.374001 -73.834084 5,375 198 247 3712
2019-04-19 10:16:35 GMT 45.380283 -73.831139 5,175 203 247 3648
2019-04-19 10:16:28 GMT 45.387688 -73.824638 4,650 219 238 2752
2019-04-19 10:16:20 GMT 45.394299 -73.816940 4,275 220 234 2944
2019-04-19 10:16:16 GMT 45.396835 -73.814003 4,150 220 234 2752
2019-04-19 10:16:09 GMT 45.402832 -73.806999 3,825 220 230 2752
2019-04-19 10:16:06 GMT 45.405285 -73.804146 3,675 220 229 3008
2019-04-19 10:15:55 GMT 45.414551 -73.793205 3,225 220 219 2048
2019-04-19 10:15:48 GMT 45.419815 -73.786995 2,950 221 212 3200
2019-04-19 10:15:38 GMT 45.427395 -73.777885 2,275 221 219 3840
2019-04-19 10:15:28 GMT 45.435543 -73.768234 1,850 220 213 1920
2019-04-19 10:15:17 GMT 45.443039 -73.759392 1,525 221 203 2112

Making use of Plane Finder data

You are free to use the raw flight data, aircraft information and images provided in this report for your own purposes provided the data is correctly attributed to Plane Finder. We ask that you please credit Plane Finder and link to planefinder.net in close proximity to the content.

Optionally one of the following logos (no smaller then 150x24px) can be used and must link to planefinder.net

Embedding the Plane Finder map

You are welcome to embed the Plane Finder playback map on your website to offer visitors a more interactive experience. We suggest using the following HTML code:

<iframe src="//planefinder.net/data/report/AA1516-N817NN-7700-squawk-2019-04-19/map" width="800" height="600" seamless="seamless"></iframe>

Where our data comes from

Plane Finder has a global network of data feeds and antenna radars that receive data broadcast directly from aircraft. The primary technologies used are ADS-B and MLAT. We also show feeds from the FAA and a FLARM glider feed.

Click here to find out more about the Plane Finder network.

How we collect our data